Wetterdaten: Mittwoch, 17.04.2019
Datum Zeit Temp. Aussen Temp. o. S. +5cm Feuchte Auss Luftdruck Regen Sonnenschein Regendauer Solar Windben Empfang
17.04.2019 00:00 12,4 C 11,7 C 11,1 C 76 % 1016,8 hPa 0,0 l/m 0 min 0 min 0 W/m 6,4 km/h (2 Bft) 97,87 %
17.04.2019 00:02 12,4 C 11,7 C 11,1 C 76 % 1016,8 hPa 0,0 l/m 0 min 0 min 0 W/m 6,4 km/h (2 Bft) 97,44 %
17.04.2019 00:04 12,4 C 11,7 C 11,1 C 76 % 1016,8 hPa 0,0 l/m 0 min 0 min 0 W/m 9,7 km/h (2 Bft) 97,83 %
17.04.2019 00:10 12,4 C 11,7 C 11,1 C 77 % 1016,8 hPa 0,0 l/m 0 min 0 min 0 W/m 19,3 km/h (3 Bft) 98,58 %
17.04.2019 00:12 12,4 C 11,7 C 11,1 C 77 % 1016,8 hPa 0,0 l/m 0 min 0 min 0 W/m 6,4 km/h (2 Bft) 100,00 %
17.04.2019 00:14 12,3 C 11,7 C 11,1 C 77 % 1016,9 hPa 0,0 l/m 0 min 0 min 0 W/m 6,4 km/h (2 Bft) 100,00 %
17.04.2019 00:16 12,3 C 11,7 C 11,1 C 77 % 1016,9 hPa 0,0 l/m 0 min 0 min 0 W/m 9,7 km/h (2 Bft) 100,00 %
17.04.2019 00:18 12,3 C 11,7 C 11,1 C 77 % 1016,9 hPa 0,0 l/m 0 min 0 min 0 W/m 9,7 km/h (2 Bft) 100,00 %
17.04.2019 00:20 12,3 C 11,7 C 11,1 C 78 % 1017,0 hPa 0,0 l/m 0 min 0 min 0 W/m 9,7 km/h (2 Bft) 97,87 %
17.04.2019 00:22 12,3 C 11,7 C 11,1 C 78 % 1017,0 hPa 0,0 l/m 0 min 0 min 0 W/m 9,7 km/h (2 Bft) 100,00 %
17.04.2019 00:24 12,3 C 11,7 C 11,1 C 78 % 1017,1 hPa 0,0 l/m 0 min 0 min 0 W/m 9,7 km/h (2 Bft) 100,00 %
17.04.2019 00:26 12,3 C 11,7 C 11,1 C 78 % 1017,1 hPa 0,0 l/m 0 min 0 min 0 W/m 6,4 km/h (2 Bft) 100,00 %
17.04.2019 00:28 12,3 C 11,7 C 11,1 C 78 % 1017,0 hPa 0,0 l/m 0 min 0 min 0 W/m 9,7 km/h (2 Bft) 100,00 %
17.04.2019 00:30 12,3 C 11,7 C 11,1 C 78 % 1017,0 hPa 0,0 l/m 0 min 0 min 0 W/m 6,4 km/h (2 Bft) 100,00 %
17.04.2019 00:32 12,2 C 11,7 C 10,6 C 78 % 1017,1 hPa 0,0 l/m 0 min 0 min 0 W/m 6,4 km/h (2 Bft) 100,00 %
17.04.2019 00:34 12,2 C 11,1 C 10,6 C 78 % 1017,1 hPa 0,0 l/m 0 min 0 min 0 W/m 6,4 km/h (2 Bft) 97,87 %
17.04.2019 00:36 12,2 C 11,1 C 10,6 C 78 % 1017,1 hPa 0,0 l/m 0 min 0 min 0 W/m 6,4 km/h (2 Bft) 97,87 %
17.04.2019 00:38 12,2 C 11,1 C 10,6 C 78 % 1017,1 hPa 0,0 l/m 0 min 0 min 0 W/m 6,4 km/h (2 Bft) 97,83 %
17.04.2019 00:40 12,2 C 11,1 C 10,6 C 78 % 1017,1 hPa 0,0 l/m 0 min 0 min 0 W/m 9,7 km/h (2 Bft) 100,00 %
17.04.2019 00:42 12,2 C 11,1 C 10,6 C 79 % 1017,1 hPa 0,0 l/m 0 min 0 min 0 W/m 9,7 km/h (2 Bft) 100,00 %
17.04.2019 00:44 12,2 C 11,1 C 10,6 C 79 % 1017,1 hPa 0,0 l/m 0 min 0 min 0 W/m 6,4 km/h (2 Bft) 100,00 %
17.04.2019 00:46 12,2 C 11,1 C 10,6 C 79 % 1017,1 hPa 0,0 l/m 0 min 0 min 0 W/m 6,4 km/h (2 Bft) 97,87 %
17.04.2019 00:48 12,2 C 11,1 C 10,6 C 79 % 1017,1 hPa 0,0 l/m 0 min 0 min 0 W/m 6,4 km/h (2 Bft) 100,00 %
17.04.2019 00:50 12,2 C 11,1 C 10,6 C 79 % 1017,1 hPa 0,0 l/m 0 min 0 min 0 W/m 12,9 km/h (3 Bft) 97,83 %
17.04.2019 00:52 12,1 C 11,1 C 10,6 C 79 % 1017,1 hPa 0,0 l/m 0 min 0 min 0 W/m 9,7 km/h (2 Bft) 100,00 %
17.04.2019 00:54 12,1 C 11,1 C 10,6 C 79 % 1017,1 hPa 0,0 l/m 0 min 0 min 0 W/m 6,4 km/h (2 Bft) 100,00 %
17.04.2019 00:56 12,1 C 11,1 C 10,6 C 79 % 1017,1 hPa 0,0 l/m 0 min 0 min 0 W/m 9,7 km/h (2 Bft) 97,87 %
17.04.2019 00:58 12,1 C 11,1 C 10,6 C 80 % 1017,1 hPa 0,0 l/m 0 min 0 min 0 W/m 9,7 km/h (2 Bft) 97,87 %
17.04.2019 01:00 12,1 C 11,1 C 10,6 C 80 % 1017,2 hPa 0,0 l/m 0 min 0 min 0 W/m 6,4 km/h (2 Bft) 97,87 %
17.04.2019 01:02 12,1 C 11,1 C 10,6 C 80 % 1017,1 hPa 0,0 l/m 0 min 0 min 0 W/m 6,4 km/h (2 Bft) 100,00 %
17.04.2019 01:04 12,1 C 11,1 C 10,6 C 80 % 1017,2 hPa 0,0 l/m 0 min 0 min 0 W/m 9,7 km/h (2 Bft) 97,87 %
17.04.2019 01:06 12,1 C 11,1 C 10,6 C 80 % 1017,2 hPa 0,0 l/m 0 min 0 min 0 W/m 12,9 km/h (3 Bft) 97,87 %
17.04.2019 01:08 12,0 C 11,1 C 10,6 C 80 % 1017,2 hPa 0,0 l/m 0 min 0 min 0 W/m 9,7 km/h (2 Bft) 97,87 %
17.04.2019 01:10 12,0 C 11,1 C 10,6 C 80 % 1017,2 hPa 0,0 l/m 0 min 0 min 0 W/m 9,7 km/h (2 Bft) 100,00 %
17.04.2019 01:12 12,0 C 11,1 C 10,6 C 80 % 1017,2 hPa 0,0 l/m 0 min 0 min 0 W/m 9,7 km/h (2 Bft) 100,00 %
17.04.2019 01:14 12,0 C 11,1 C 10,6 C 80 % 1017,2 hPa 0,0 l/m 0 min 0 min 0 W/m 12,9 km/h (3 Bft) 95,74 %
17.04.2019 01:16 12,0 C 11,1 C 10,6 C 80 % 1017,2 hPa 0,0 l/m 0 min 0 min 0 W/m 12,9 km/h (3 Bft) 97,87 %
17.04.2019 01:18 12,0 C 11,1 C 10,6 C 80 % 1017,2 hPa 0,0 l/m 0 min 0 min 0 W/m 9,7 km/h (2 Bft) 97,87 %
17.04.2019 01:20 12,0 C 11,1 C 10,6 C 80 % 1017,2 hPa 0,0 l/m 0 min 0 min 0 W/m 9,7 km/h (2 Bft) 97,87 %
17.04.2019 01:22 12,0 C 11,1 C 10,6 C 80 % 1017,2 hPa 0,0 l/m 0 min 0 min 0 W/m 6,4 km/h (2 Bft) 95,74 %
17.04.2019 01:24 12,0 C 11,1 C 10,6 C 81 % 1017,2 hPa 0,0 l/m 0 min 0 min 0 W/m 12,9 km/h (3 Bft) 97,83 %
17.04.2019 01:26 12,0 C 11,1 C 10,6 C 80 % 1017,3 hPa 0,0 l/m 0 min 0 min 0 W/m 9,7 km/h (2 Bft) 97,87 %
17.04.2019 01:28 12,0 C 11,1 C 10,6 C 80 % 1017,2 hPa 0,0 l/m 0 min 0 min 0 W/m 6,4 km/h (2 Bft) 97,87 %
17.04.2019 01:30 12,0 C 11,1 C 10,6 C 80 % 1017,2 hPa 0,0 l/m 0 min 0 min 0 W/m 9,7 km/h (2 Bft) 97,87 %
17.04.2019 01:32 12,0 C 11,1 C 10,6 C 80 % 1017,3 hPa 0,0 l/m 0 min 0 min 0 W/m 6,4 km/h (2 Bft) 97,87 %
17.04.2019 01:34 12,0 C 11,7 C 10,6 C 80 % 1017,3 hPa 0,0 l/m 0 min 0 min 0 W/m 9,7 km/h (2 Bft) 97,87 %
17.04.2019 01:36 12,0 C 11,1 C 10,6 C 80 % 1017,2 hPa 0,0 l/m 0 min 0 min 0 W/m 9,7 km/h (2 Bft) 95,65 %
17.04.2019 01:38 12,0 C 11,1 C 10,6 C 80 % 1017,2 hPa 0,0 l/m 0 min 0 min 0 W/m 6,4 km/h (2 Bft) 97,87 %
17.04.2019 01:40 11,9 C 11,1 C 10,6 C 80 % 1017,2 hPa 0,0 l/m 0 min 0 min 0 W/m 6,4 km/h (2 Bft) 95,74 %
17.04.2019 01:42 11,9 C 11,7 C 10,6 C 80 % 1017,2 hPa 0,0 l/m 0 min 0 min 0 W/m 9,7 km/h (2 Bft) 95,74 %
17.04.2019 01:44 11,9 C 11,7 C 10,6 C 80 % 1017,2 hPa 0,0 l/m 0 min 0 min 0 W/m 9,7 km/h (2 Bft) 95,74 %
17.04.2019 01:46 11,9 C 11,7 C 10,6 C 80 % 1017,2 hPa 0,0 l/m 0 min 0 min 0 W/m 9,7 km/h (2 Bft) 97,87 %
17.04.2019 01:48 11,9 C 11,7 C 10,6 C 80 % 1017,3 hPa 0,0 l/m 0 min 0 min 0 W/m 9,7 km/h (2 Bft) 97,83 %
17.04.2019 01:50 12,0 C 11,7 C 10,6 C 80 % 1017,2 hPa 0,0 l/m 0 min 0 min 0 W/m 6,4 km/h (2 Bft) 97,87 %
17.04.2019 01:52 11,9 C 11,1 C 10,6 C 79 % 1017,3 hPa 0,0 l/m 0 min 0 min 0 W/m 9,7 km/h (2 Bft) 97,87 %
17.04.2019 01:54 11,9 C 11,1 C 10,6 C 79 % 1017,2 hPa 0,0 l/m 0 min 0 min 0 W/m 6,4 km/h (2 Bft) 95,74 %
17.04.2019 01:56 12,0 C 11,1 C 10,6 C 79 % 1017,2 hPa 0,0 l/m 0 min 0 min 0 W/m 6,4 km/h (2 Bft) 97,87 %
17.04.2019 01:58 11,9 C 11,1 C 10,6 C 79 % 1017,2 hPa 0,0 l/m 0 min 0 min 0 W/m 6,4 km/h (2 Bft) 97,87 %
17.04.2019 02:00 11,9 C 11,1 C 10,6 C 79 % 1017,3 hPa 0,0 l/m 0 min 0 min 0 W/m 6,4 km/h (2 Bft) 100,00 %
17.04.2019 02:02 11,9 C 11,1 C 10,6 C 79 % 1017,3 hPa 0,0 l/m 0 min 0 min 0 W/m 6,4 km/h (2 Bft) 97,87 %
17.04.2019 02:04 11,9 C 11,1 C 10,6 C 79 % 1017,3 hPa 0,0 l/m 0 min 0 min 0 W/m 3,2 km/h (1 Bft) 97,87 %
17.04.2019 02:06 11,9 C 11,1 C 10,6 C 79 % 1017,3 hPa 0,0 l/m 0 min 0 min 0 W/m 3,2 km/h (1 Bft) 100,00 %
17.04.2019 02:08 11,9 C 11,1 C 10,6 C 79 % 1017,3 hPa 0,0 l/m 0 min 0 min 0 W/m 9,7 km/h (2 Bft) 100,00 %
17.04.2019 02:10 11,9 C 11,1 C 10,6 C 79 % 1017,3 hPa 0,0 l/m 0 min 0 min 0 W/m 6,4 km/h (2 Bft) 97,83 %
17.04.2019 02:12 11,9 C 11,1 C 10,6 C 79 % 1017,3 hPa 0,0 l/m 0 min 0 min 0 W/m 6,4 km/h (2 Bft) 95,74 %
17.04.2019 02:14 11,9 C 11,1 C 10,6 C 79 % 1017,3 hPa 0,0 l/m 0 min 0 min 0 W/m 9,7 km/h (2 Bft) 95,74 %
17.04.2019 02:16 11,9 C 11,1 C 10,6 C 79 % 1017,3 hPa 0,0 l/m 0 min 0 min 0 W/m 6,4 km/h (2 Bft) 95,74 %
17.04.2019 02:18 11,9 C 11,7 C 10,6 C 79 % 1017,3 hPa 0,0 l/m 0 min 0 min 0 W/m 9,7 km/h (2 Bft) 95,74 %
17.04.2019 02:20 11,9 C 11,7 C 10,6 C 79 % 1017,3 hPa 0,0 l/m 0 min 0 min 0 W/m 12,9 km/h (3 Bft) 93,62 %
17.04.2019 02:22 11,9 C 11,7 C 10,6 C 79 % 1017,3 hPa 0,0 l/m 0 min 0 min 0 W/m 9,7 km/h (2 Bft) 93,48 %
17.04.2019 02:24 11,9 C 11,1 C 10,6 C 79 % 1017,2 hPa 0,0 l/m 0 min 0 min 0 W/m 9,7 km/h (2 Bft) 95,74 %
17.04.2019 02:26 11,9 C 11,1 C 10,6 C 79 % 1017,3 hPa 0,0 l/m 0 min 0 min 0 W/m 6,4 km/h (2 Bft) 95,74 %
17.04.2019 02:28 11,9 C 11,1 C 10,6 C 79 % 1017,2 hPa 0,0 l/m 0 min 0 min 0 W/m 6,4 km/h (2 Bft) 95,74 %
17.04.2019 02:30 11,9 C 11,1 C 10,6 C 78 % 1017,2 hPa 0,0 l/m 0 min 0 min 0 W/m 9,7 km/h (2 Bft) 95,74 %
17.04.2019 02:32 11,9 C 11,1 C 10,6 C 78 % 1017,2 hPa 0,0 l/m 0 min 0 min 0 W/m 9,7 km/h (2 Bft) 93,62 %
17.04.2019 02:34 11,9 C 11,1 C 10,6 C 78 % 1017,2 hPa 0,0 l/m 0 min 0 min 0 W/m 9,7 km/h (2 Bft) 95,65 %
17.04.2019 02:36 11,9 C 11,1 C 10,6 C 78 % 1017,2 hPa 0,0 l/m 0 min 0 min 0 W/m 6,4 km/h (2 Bft) 95,74 %
17.04.2019 02:38 11,9 C 11,1 C 10,6 C 78 % 1017,2 hPa 0,0 l/m 0 min 0 min 0 W/m 6,4 km/h (2 Bft) 93,62 %
17.04.2019 02:40 11,9 C 11,1 C 10,6 C 78 % 1017,2 hPa 0,0 l/m 0 min 0 min 0 W/m 9,7 km/h (2 Bft) 95,74 %
17.04.2019 02:42 11,9 C 11,1 C 10,6 C 78 % 1017,2 hPa 0,0 l/m 0 min 0 min 0 W/m 6,4 km/h (2 Bft) 95,74 %
17.04.2019 02:44 11,9 C 11,1 C 10,6 C 78 % 1017,2 hPa 0,0 l/m 0 min 0 min 0 W/m 6,4 km/h (2 Bft) 95,74 %
17.04.2019 02:46 11,9 C 11,1 C 10,6 C 78 % 1017,2 hPa 0,0 l/m 0 min 0 min 0 W/m 6,4 km/h (2 Bft) 95,65 %
17.04.2019 02:48 11,9 C 11,1 C 10,6 C 78 % 1017,2 hPa 0,0 l/m 0 min 0 min 0 W/m 6,4 km/h (2 Bft) 95,74 %
17.04.2019 02:50 11,9 C 11,1 C 10,6 C 79 % 1017,2 hPa 0,0 l/m 0 min 0 min 0 W/m 9,7 km/h (2 Bft) 95,74 %
17.04.2019 02:52 11,9 C 11,1 C 10,6 C 79 % 1017,2 hPa 0,0 l/m 0 min 0 min 0 W/m 9,7 km/h (2 Bft) 95,74 %
17.04.2019 02:54 11,9 C 11,1 C 10,6 C 79 % 1017,2 hPa 0,0 l/m 0 min 0 min 0 W/m 12,9 km/h (3 Bft) 95,74 %
17.04.2019 02:56 11,9 C 11,1 C 10,6 C 79 % 1017,3 hPa 0,0 l/m 0 min 0 min 0 W/m 9,7 km/h (2 Bft) 95,74 %
17.04.2019 02:58 11,8 C 11,1 C 10,6 C 79 % 1017,3 hPa 0,0 l/m 0 min 0 min 0 W/m 9,7 km/h (2 Bft) 97,83 %
17.04.2019 03:00 11,8 C 11,1 C 10,6 C 79 % 1017,2 hPa 0,0 l/m 0 min 0 min 0 W/m 12,9 km/h (3 Bft) 95,74 %
17.04.2019 03:02 11,8 C 11,1 C 10,6 C 79 % 1017,2 hPa 0,0 l/m 0 min 0 min 0 W/m 9,7 km/h (2 Bft) 97,87 %
17.04.2019 03:04 11,8 C 11,1 C 10,6 C 79 % 1017,3 hPa 0,0 l/m 0 min 0 min 0 W/m 9,7 km/h (2 Bft) 97,87 %
17.04.2019 03:06 11,8 C 11,1 C 10,6 C 79 % 1017,3 hPa 0,0 l/m 0 min 0 min 0 W/m 9,7 km/h (2 Bft) 97,87 %
17.04.2019 03:08 11,8 C 11,1 C 10,6 C 79 % 1017,3 hPa 0,0 l/m 0 min 0 min 0 W/m 9,7 km/h (2 Bft) 95,74 %
17.04.2019 03:10 11,8 C 11,1 C 10,6 C 79 % 1017,3 hPa 0,0 l/m 0 min 0 min 0 W/m 9,7 km/h (2 Bft) 95,65 %
17.04.2019 03:12 11,8 C 11,1 C 10,6 C 79 % 1017,3 hPa 0,0 l/m 0 min 0 min 0 W/m 9,7 km/h (2 Bft) 100,00 %
17.04.2019 03:14 11,8 C 11,1 C 10,6 C 79 % 1017,3 hPa 0,0 l/m 0 min 0 min 0 W/m 9,7 km/h (2 Bft) 97,87 %
17.04.2019 03:16 11,8 C 11,1 C 10,6 C 79 % 1017,3 hPa 0,0 l/m 0 min 0 min 0 W/m 6,4 km/h (2 Bft) 100,00 %
17.04.2019 03:18 11,8 C 10,6 C 10,6 C 79 % 1017,3 hPa 0,0 l/m 0 min 0 min 0 W/m 6,4 km/h (2 Bft) 100,00 %
17.04.2019 03:20 11,7 C 10,6 C 10,6 C 79 % 1017,2 hPa 0,0 l/m 0 min 0 min 0 W/m 9,7 km/h (2 Bft) 100,00 %
17.04.2019 03:22 11,7 C 10,6 C 10,6 C 79 % 1017,2 hPa 0,0 l/m 0 min 0 min 0 W/m 9,7 km/h (2 Bft) 97,83 %
17.04.2019 03:24 11,7 C 10,6 C 10,6 C 80 % 1017,2 hPa 0,0 l/m 0 min 0 min 0 W/m 6,4 km/h (2 Bft) 100,00 %
17.04.2019 03:26 11,7 C 11,1 C 10,6 C 80 % 1017,2 hPa 0,0 l/m 0 min 0 min 0 W/m 12,9 km/h (3 Bft) 100,00 %
17.04.2019 03:28 11,7 C 11,1 C 10,6 C 79 % 1017,3 hPa 0,0 l/m 0 min 0 min 0 W/m 16,1 km/h (3 Bft) 97,87 %
17.04.2019 03:30 11,7 C 10,6 C 10,6 C 79 % 1017,3 hPa 0,0 l/m 0 min 0 min 0 W/m 19,3 km/h (3 Bft) 100,00 %
17.04.2019 03:32 11,7 C 10,6 C 10,6 C 79 % 1017,3 hPa 0,0 l/m 0 min 0 min 0 W/m 12,9 km/h (3 Bft) 95,74 %
17.04.2019 03:34 11,7 C 10,6 C 10,6 C 80 % 1017,3 hPa 0,0 l/m 0 min 0 min 0 W/m 9,7 km/h (2 Bft) 97,83 %
17.04.2019 03:36 11,6 C 10,6 C 10,0 C 80 % 1017,3 hPa 0,0 l/m 0 min 0 min 0 W/m 9,7 km/h (2 Bft) 97,87 %
17.04.2019 03:38 11,6 C 10,6 C 10,6 C 80 % 1017,3 hPa 0,0 l/m 0 min 0 min 0 W/m 12,9 km/h (3 Bft) 100,00 %
17.04.2019 03:40 11,6 C 10,6 C 10,6 C 80 % 1017,2 hPa 0,0 l/m 0 min 0 min 0 W/m 6,4 km/h (2 Bft) 100,00 %
17.04.2019 03:42 11,6 C 10,6 C 10,0 C 80 % 1017,2 hPa 0,0 l/m 0 min 0 min 0 W/m 6,4 km/h (2 Bft) 97,87 %
17.04.2019 03:44 11,6 C 10,6 C 10,6 C 80 % 1017,3 hPa 0,0 l/m 0 min 0 min 0 W/m 16,1 km/h (3 Bft) 95,65 %
17.04.2019 03:46 11,6 C 10,6 C 10,6 C 80 % 1017,3 hPa 0,0 l/m 0 min 0 min 0 W/m 16,1 km/h (3 Bft) 100,00 %
17.04.2019 03:48 11,6 C 10,6 C 10,0 C 80 % 1017,3 hPa 0,0 l/m 0 min 0 min 0 W/m 9,7 km/h (2 Bft) 100,00 %
17.04.2019 03:50 11,6 C 10,6 C 10,6 C 80 % 1017,3 hPa 0,0 l/m 0 min 0 min 0 W/m 9,7 km/h (2 Bft) 100,00 %
17.04.2019 03:52 11,6 C 10,6 C 10,6 C 80 % 1017,3 hPa 0,0 l/m 0 min 0 min 0 W/m 12,9 km/h (3 Bft) 97,87 %
17.04.2019 03:54 11,6 C 10,6 C 10,6 C 80 % 1017,3 hPa 0,0 l/m 0 min 0 min 0 W/m 9,7 km/h (2 Bft) 95,74 %
17.04.2019 03:56 11,6 C 10,6 C 10,6 C 80 % 1017,2 hPa 0,0 l/m 0 min 0 min 0 W/m 9,7 km/h (2 Bft) 95,65 %
17.04.2019 03:58 11,6 C 10,6 C 10,6 C 80 % 1017,2 hPa 0,0 l/m 0 min 0 min 0 W/m 12,9 km/h (3 Bft) 97,87 %
17.04.2019 04:00 11,6 C 11,1 C 10,6 C 80 % 1017,2 hPa 0,0 l/m 0 min 0 min 0 W/m 12,9 km/h (3 Bft) 97,87 %
17.04.2019 04:05 11,6 C 11,1 C 10,6 C 81 % 1017,3 hPa 0,0 l/m 0 min 0 min 0 W/m 9,7 km/h (2 Bft) 100,00 %
17.04.2019 04:06 11,6 C 11,1 C 10,6 C 81 % 1017,3 hPa 0,0 l/m 0 min 0 min 0 W/m 9,7 km/h (2 Bft) 92,00 %
17.04.2019 04:08 11,5 C 11,1 C 10,6 C 81 % 1017,3 hPa 0,0 l/m 0 min 0 min 0 W/m 9,7 km/h (2 Bft) 97,83 %
17.04.2019 04:10 11,6 C 11,1 C 10,6 C 81 % 1017,3 hPa 0,0 l/m 0 min 0 min 0 W/m 6,4 km/h (2 Bft) 97,87 %
17.04.2019 04:12 11,6 C 10,6 C 10,0 C 81 % 1017,3 hPa 0,0 l/m 0 min 0 min 0 W/m 6,4 km/h (2 Bft) 95,74 %
17.04.2019 04:14 11,5 C 10,6 C 10,0 C 81 % 1017,3 hPa 0,0 l/m 0 min 0 min 0 W/m 3,2 km/h (1 Bft) 97,87 %
17.04.2019 04:16 11,5 C 10,6 C 10,0 C 81 % 1017,3 hPa 0,0 l/m 0 min 0 min 0 W/m 6,4 km/h (2 Bft) 95,74 %
17.04.2019 04:18 11,5 C 10,6 C 10,0 C 81 % 1017,3 hPa 0,0 l/m 0 min 0 min 0 W/m 3,2 km/h (1 Bft) 97,83 %
17.04.2019 04:20 11,5 C 10,6 C 10,0 C 81 % 1017,3 hPa 0,0 l/m 0 min 0 min 0 W/m 9,7 km/h (2 Bft) 95,74 %
17.04.2019 04:22 11,5 C 10,6 C 10,0 C 81 % 1017,3 hPa 0,0 l/m 0 min 0 min 0 W/m 12,9 km/h (3 Bft) 97,87 %
17.04.2019 04:24 11,5 C 10,6 C 10,0 C 81 % 1017,3 hPa 0,0 l/m 0 min 0 min 0 W/m 12,9 km/h (3 Bft) 95,74 %
17.04.2019 04:26 11,5 C 10,6 C 10,0 C 81 % 1017,3 hPa 0,0 l/m 0 min 0 min 0 W/m 9,7 km/h (2 Bft) 97,87 %
17.04.2019 04:28 11,5 C 10,6 C 10,0 C 81 % 1017,3 hPa 0,0 l/m 0 min 0 min 0 W/m 6,4 km/h (2 Bft) 95,74 %
17.04.2019 04:30 11,5 C 10,6 C 10,0 C 81 % 1017,3 hPa 0,0 l/m 0 min 0 min 0 W/m 6,4 km/h (2 Bft) 95,65 %
17.04.2019 04:32 11,5 C 10,6 C 10,0 C 81 % 1017,3 hPa 0,0 l/m 0 min 0 min 0 W/m 6,4 km/h (2 Bft) 95,74 %
17.04.2019 04:34 11,5 C 10,6 C 10,0 C 81 % 1017,3 hPa 0,0 l/m 0 min 0 min 0 W/m 6,4 km/h (2 Bft) 97,87 %
17.04.2019 04:36 11,5 C 10,6 C 10,0 C 81 % 1017,3 hPa 0,0 l/m 0 min 0 min 0 W/m 9,7 km/h (2 Bft) 100,00 %
17.04.2019 04:38 11,5 C 10,6 C 10,0 C 81 % 1017,3 hPa 0,0 l/m 0 min 0 min 0 W/m 6,4 km/h (2 Bft) 100,00 %
17.04.2019 04:40 11,5 C 10,6 C 10,0 C 81 % 1017,3 hPa 0,0 l/m 0 min 0 min 0 W/m 6,4 km/h (2 Bft) 100,00 %
17.04.2019 04:42 11,5 C 10,6 C 10,0 C 81 % 1017,3 hPa 0,0 l/m 0 min 0 min 0 W/m 6,4 km/h (2 Bft) 97,83 %
17.04.2019 04:44 11,5 C 10,6 C 10,0 C 82 % 1017,2 hPa 0,0 l/m 0 min 0 min 0 W/m 6,4 km/h (2 Bft) 100,00 %
17.04.2019 04:46 11,5 C 10,6 C 10,0 C 81 % 1017,2 hPa 0,0 l/m 0 min 0 min 0 W/m 3,2 km/h (1 Bft) 100,00 %
17.04.2019 04:48 11,5 C 11,1 C 10,0 C 81 % 1017,3 hPa 0,0 l/m 0 min 0 min 0 W/m 6,4 km/h (2 Bft) 97,87 %
17.04.2019 04:50 11,5 C 11,1 C 10,0 C 81 % 1017,3 hPa 0,0 l/m 0 min 0 min 0 W/m 9,7 km/h (2 Bft) 100,00 %
17.04.2019 04:52 11,5 C 11,1 C 10,0 C 81 % 1017,3 hPa 0,0 l/m 0 min 0 min 0 W/m 9,7 km/h (2 Bft) 100,00 %
17.04.2019 04:54 11,5 C 10,6 C 10,0 C 81 % 1017,3 hPa 0,0 l/m 0 min 0 min 0 W/m 9,7 km/h (2 Bft) 97,83 %
17.04.2019 04:56 11,5 C 10,6 C 10,0 C 81 % 1017,2 hPa 0,0 l/m 0 min 0 min 0 W/m 3,2 km/h (1 Bft) 97,87 %
17.04.2019 04:58 11,5 C 10,6 C 10,0 C 81 % 1017,2 hPa 0,0 l/m 0 min 0 min 0 W/m 6,4 km/h (2 Bft) 97,87 %
17.04.2019 05:00 11,5 C 10,6 C 10,0 C 82 % 1017,3 hPa 0,0 l/m 0 min 0 min 0 W/m 6,4 km/h (2 Bft) 95,74 %
17.04.2019 05:02 11,5 C 10,6 C 10,0 C 82 % 1017,3 hPa 0,0 l/m 0 min 0 min 0 W/m 6,4 km/h (2 Bft) 97,87 %
17.04.2019 05:04 11,5 C 10,6 C 10,0 C 82 % 1017,3 hPa 0,0 l/m 0 min 0 min 0 W/m 3,2 km/h (1 Bft) 97,87 %
17.04.2019 05:16 11,4 C 10,6 C 9,4 C 82 % 1017,4 hPa 0,0 l/m 0 min 0 min 0 W/m 3,2 km/h (1 Bft) 100,00 %
17.04.2019 05:18 11,4 C 10,6 C 9,4 C 82 % 1017,4 hPa 0,0 l/m 0 min 0 min 0 W/m 3,2 km/h (1 Bft) 97,83 %
17.04.2019 05:20 11,4 C 10,6 C 9,4 C 82 % 1017,3 hPa 0,0 l/m 0 min 0 min 0 W/m 3,2 km/h (1 Bft) 97,87 %
17.04.2019 05:22 11,4 C 10,6 C 9,4 C 82 % 1017,3 hPa 0,0 l/m 0 min 0 min 0 W/m 3,2 km/h (1 Bft) 97,87 %
17.04.2019 05:24 11,3 C 10,6 C 9,4 C 82 % 1017,2 hPa 0,0 l/m 0 min 0 min 0 W/m 3,2 km/h (1 Bft) 97,87 %
17.04.2019 05:26 11,3 C 10,6 C 10,0 C 82 % 1017,3 hPa 0,0 l/m 0 min 0 min 0 W/m 6,4 km/h (2 Bft) 97,87 %
17.04.2019 05:28 11,3 C 10,6 C 10,0 C 82 % 1017,3 hPa 0,0 l/m 0 min 0 min 0 W/m 3,2 km/h (1 Bft) 97,87 %
17.04.2019 05:30 11,3 C 10,6 C 10,0 C 82 % 1017,4 hPa 0,0 l/m 0 min 0 min 0 W/m 6,4 km/h (2 Bft) 95,65 %
17.04.2019 05:32 11,3 C 10,6 C 10,0 C 82 % 1017,3 hPa 0,0 l/m 0 min 0 min 0 W/m 6,4 km/h (2 Bft) 97,87 %
17.04.2019 05:34 11,3 C 10,6 C 10,0 C 82 % 1017,4 hPa 0,0 l/m 0 min 0 min 0 W/m 6,4 km/h (2 Bft) 97,87 %
17.04.2019 05:36 11,3 C 10,6 C 10,0 C 82 % 1017,4 hPa 0,0 l/m 0 min 0 min 0 W/m 6,4 km/h (2 Bft) 97,87 %
17.04.2019 05:38 11,3 C 10,6 C 10,0 C 82 % 1017,4 hPa 0,0 l/m 0 min 0 min 0 W/m 6,4 km/h (2 Bft) 97,87 %
17.04.2019 05:40 11,3 C 10,6 C 10,0 C 82 % 1017,4 hPa 0,0 l/m 0 min 0 min 0 W/m 9,7 km/h (2 Bft) 97,87 %
17.04.2019 05:42 11,3 C 10,6 C 10,0 C 82 % 1017,5 hPa 0,0 l/m 0 min 0 min 0 W/m 6,4 km/h (2 Bft) 97,83 %
17.04.2019 05:44 11,2 C 10,6 C 10,0 C 82 % 1017,4 hPa 0,0 l/m 0 min 0 min 0 W/m 6,4 km/h (2 Bft) 97,87 %
17.04.2019 05:46 11,3 C 10,6 C 10,0 C 83 % 1017,4 hPa 0,0 l/m 0 min 0 min 0 W/m 9,7 km/h (2 Bft) 97,87 %
17.04.2019 05:48 11,3 C 10,6 C 10,0 C 83 % 1017,5 hPa 0,0 l/m 0 min 0 min 0 W/m 9,7 km/h (2 Bft) 97,87 %
17.04.2019 05:50 11,3 C 10,6 C 10,0 C 83 % 1017,4 hPa 0,0 l/m 0 min 0 min 0 W/m 12,9 km/h (3 Bft) 97,87 %
17.04.2019 05:52 11,3 C 10,6 C 10,0 C 83 % 1017,4 hPa 0,0 l/m 0 min 0 min 0 W/m 12,9 km/h (3 Bft) 97,87 %
17.04.2019 05:54 11,3 C 10,6 C 10,0 C 83 % 1017,4 hPa 0,0 l/m 0 min 0 min 0 W/m 6,4 km/h (2 Bft) 95,24 %
17.04.2019 05:56 11,3 C 10,6 C 10,0 C 83 % 1017,4 hPa 0,0 l/m 0 min 0 min 0 W/m 3,2 km/h (1 Bft) 95,65 %
17.04.2019 05:58 11,3 C 10,6 C 10,0 C 83 % 1017,5 hPa 0,0 l/m 0 min 0 min 0 W/m 6,4 km/h (2 Bft) 97,87 %
17.04.2019 06:00 11,3 C 10,6 C 10,0 C 83 % 1017,4 hPa 0,0 l/m 0 min 0 min 0 W/m 3,2 km/h (1 Bft) 95,74 %
17.04.2019 06:02 11,3 C 10,6 C 10,0 C 83 % 1017,5 hPa 0,0 l/m 0 min 0 min 0 W/m 6,4 km/h (2 Bft) 95,74 %
17.04.2019 06:04 11,3 C 10,6 C 10,0 C 83 % 1017,4 hPa 0,0 l/m 0 min 0 min 0 W/m 0,0 km/h (0 Bft) 97,87 %
17.04.2019 06:07 11,3 C 10,6 C 10,0 C 83 % 1017,4 hPa 0,0 l/m 0 min 0 min 0 W/m 3,2 km/h (1 Bft) 98,72 %
17.04.2019 06:08 11,3 C 10,6 C 10,0 C 83 % 1017,4 hPa 0,0 l/m 0 min 0 min 0 W/m 0,0 km/h (0 Bft) 95,65 %
17.04.2019 06:10 11,3 C 10,6 C 10,0 C 83 % 1017,4 hPa 0,0 l/m 0 min 0 min 0 W/m 3,2 km/h (1 Bft) 97,87 %
17.04.2019 06:12 11,2 C 10,0 C 9,4 C 83 % 1017,5 hPa 0,0 l/m 0 min 0 min 0 W/m 6,4 km/h (2 Bft) 97,87 %
17.04.2019 06:14 11,2 C 10,0 C 9,4 C 83 % 1017,5 hPa 0,0 l/m 0 min 0 min 0 W/m 3,2 km/h (1 Bft) 97,87 %
17.04.2019 06:16 11,2 C 10,0 C 9,4 C 83 % 1017,5 hPa 0,0 l/m 0 min 0 min 0 W/m 3,2 km/h (1 Bft) 95,65 %
17.04.2019 06:18 11,2 C 10,0 C 9,4 C 83 % 1017,5 hPa 0,0 l/m 0 min 0 min 0 W/m 0,0 km/h (0 Bft) 95,74 %
17.04.2019 06:20 11,2 C 10,0 C 9,4 C 83 % 1017,5 hPa 0,0 l/m 0 min 0 min 0 W/m 0,0 km/h (0 Bft) 95,74 %
17.04.2019 06:22 11,2 C 10,0 C 9,4 C 83 % 1017,5 hPa 0,0 l/m 0 min 0 min 0 W/m 0,0 km/h (0 Bft) 97,87 %
17.04.2019 06:24 11,2 C 10,0 C 9,4 C 83 % 1017,6 hPa 0,0 l/m 0 min 0 min 0 W/m 0,0 km/h (0 Bft) 97,87 %
17.04.2019 06:26 11,2 C 10,0 C 9,4 C 83 % 1017,6 hPa 0,0 l/m 0 min 2 min 0 W/m 0,0 km/h (0 Bft) 97,87 %
17.04.2019 06:28 11,2 C 10,0 C 9,4 C 84 % 1017,6 hPa 0,0 l/m 0 min 2 min 0 W/m 6,4 km/h (2 Bft) 95,65 %
17.04.2019 06:30 11,2 C 10,0 C 9,4 C 84 % 1017,6 hPa 0,0 l/m 0 min 2 min 0 W/m 6,4 km/h (2 Bft) 95,74 %
17.04.2019 06:32 11,2 C 10,0 C 9,4 C 84 % 1017,6 hPa 0,0 l/m 0 min 0 min 0 W/m 9,7 km/h (2 Bft) 95,74 %
17.04.2019 06:34 11,1 C 10,0 C 9,4 C 84 % 1017,6 hPa 0,0 l/m 0 min 2 min 0 W/m 9,7 km/h (2 Bft) 95,74 %
17.04.2019 06:36 11,1 C 10,0 C 9,4 C 84 % 1017,6 hPa 0,0 l/m 0 min 2 min 0 W/m 9,7 km/h (2 Bft) 93,62 %
17.04.2019 06:38 11,1 C 10,0 C 9,4 C 84 % 1017,6 hPa 0,0 l/m 0 min 2 min 0 W/m 6,4 km/h (2 Bft) 95,74 %
17.04.2019 06:40 11,1 C 10,0 C 9,4 C 84 % 1017,6 hPa 0,0 l/m 0 min 2 min 0 W/m 6,4 km/h (2 Bft) 95,65 %
17.04.2019 06:42 11,1 C 10,0 C 9,4 C 84 % 1017,7 hPa 0,0 l/m 0 min 2 min 0 W/m 9,7 km/h (2 Bft) 93,62 %
17.04.2019 06:44 11,1 C 10,0 C 9,4 C 85 % 1017,6 hPa 0,0 l/m 0 min 0 min 1 W/m 9,7 km/h (2 Bft) 95,74 %
17.04.2019 06:46 11,1 C 10,0 C 9,4 C 85 % 1017,7 hPa 0,0 l/m 0 min 2 min 5 W/m 9,7 km/h (2 Bft) 95,74 %
17.04.2019 06:48 11,1 C 10,0 C 9,4 C 85 % 1017,7 hPa 0,0 l/m 0 min 2 min 5 W/m 9,7 km/h (2 Bft) 95,74 %
17.04.2019 06:50 11,1 C 10,0 C 9,4 C 85 % 1017,7 hPa 0,0 l/m 0 min 0 min 5 W/m 9,7 km/h (2 Bft) 95,74 %
17.04.2019 06:52 11,1 C 10,0 C 9,4 C 85 % 1017,7 hPa 0,0 l/m 0 min 0 min 5 W/m 6,4 km/h (2 Bft) 97,83 %
17.04.2019 06:54 11,2 C 10,0 C 9,4 C 85 % 1017,7 hPa 0,0 l/m 0 min 0 min 5 W/m 9,7 km/h (2 Bft) 97,87 %
17.04.2019 06:56 11,2 C 10,0 C 10,0 C 85 % 1017,7 hPa 0,0 l/m 0 min 0 min 6 W/m 9,7 km/h (2 Bft) 97,87 %
17.04.2019 06:58 11,2 C 10,0 C 9,4 C 85 % 1017,7 hPa 0,0 l/m 0 min 0 min 7 W/m 9,7 km/h (2 Bft) 95,12 %
17.04.2019 07:00 11,2 C 10,0 C 9,4 C 85 % 1017,7 hPa 0,0 l/m 0 min 0 min 7 W/m 6,4 km/h (2 Bft) 95,74 %
17.04.2019 07:02 11,2 C 10,0 C 9,4 C 85 % 1017,7 hPa 0,0 l/m 0 min 2 min 8 W/m 9,7 km/h (2 Bft) 97,87 %
17.04.2019 07:04 11,2 C 10,0 C 9,4 C 85 % 1017,8 hPa 0,0 l/m 0 min 0 min 11 W/m 9,7 km/h (2 Bft) 97,87 %
17.04.2019 07:06 11,2 C 10,0 C 9,4 C 85 % 1017,8 hPa 0,0 l/m 0 min 2 min 12 W/m 6,4 km/h (2 Bft) 98,08 %
17.04.2019 07:08 11,2 C 10,0 C 9,4 C 85 % 1017,8 hPa 0,0 l/m 0 min 2 min 13 W/m 9,7 km/h (2 Bft) 95,74 %
17.04.2019 07:10 11,2 C 10,0 C 9,4 C 85 % 1017,8 hPa 0,0 l/m 0 min 2 min 15 W/m 6,4 km/h (2 Bft) 100,00 %
17.04.2019 07:12 11,2 C 10,0 C 9,4 C 86 % 1017,9 hPa 0,0 l/m 0 min 2 min 17 W/m 9,7 km/h (2 Bft) 95,74 %
17.04.2019 07:14 11,2 C 10,0 C 9,4 C 86 % 1017,9 hPa 0,0 l/m 0 min 2 min 18 W/m 9,7 km/h (2 Bft) 100,00 %
17.04.2019 07:16 11,2 C 10,0 C 9,4 C 86 % 1017,9 hPa 0,0 l/m 0 min 0 min 19 W/m 12,9 km/h (3 Bft) 100,00 %
17.04.2019 07:18 11,2 C 10,0 C 9,4 C 86 % 1017,9 hPa 0,0 l/m 0 min 0 min 19 W/m 12,9 km/h (3 Bft) 100,00 %
17.04.2019 07:20 11,2 C 10,0 C 9,4 C 86 % 1017,9 hPa 0,0 l/m 0 min 2 min 19 W/m 16,1 km/h (3 Bft) 100,00 %
17.04.2019 07:22 11,2 C 10,0 C 9,4 C 86 % 1018,0 hPa 0,0 l/m 0 min 2 min 19 W/m 9,7 km/h (2 Bft) 100,00 %
17.04.2019 07:24 11,2 C 10,6 C 9,4 C 86 % 1018,0 hPa 0,0 l/m 0 min 0 min 19 W/m 9,7 km/h (2 Bft) 97,73 %
17.04.2019 07:26 11,2 C 10,6 C 9,4 C 86 % 1018,0 hPa 0,0 l/m 0 min 0 min 20 W/m 6,4 km/h (2 Bft) 100,00 %
17.04.2019 07:28 11,2 C 10,6 C 9,4 C 86 % 1018,0 hPa 0,0 l/m 0 min 0 min 21 W/m 9,7 km/h (2 Bft) 100,00 %
17.04.2019 07:30 11,2 C 10,6 C 10,0 C 86 % 1018,1 hPa 0,0 l/m 0 min 2 min 23 W/m 9,7 km/h (2 Bft) 98,00 %
17.04.2019 07:32 11,2 C 10,6 C 10,0 C 86 % 1018,1 hPa 0,0 l/m 0 min 2 min 23 W/m 6,4 km/h (2 Bft) 97,87 %
17.04.2019 07:34 11,2 C 10,6 C 10,0 C 87 % 1018,1 hPa 0,0 l/m 0 min 2 min 21 W/m 9,7 km/h (2 Bft) 100,00 %
17.04.2019 07:36 11,2 C 10,6 C 10,0 C 87 % 1018,1 hPa 0,0 l/m 0 min 2 min 21 W/m 9,7 km/h (2 Bft) 100,00 %
17.04.2019 07:38 11,2 C 10,0 C 9,4 C 87 % 1018,1 hPa 0,0 l/m 0 min 2 min 22 W/m 6,4 km/h (2 Bft) 100,00 %
17.04.2019 07:40 11,2 C 10,0 C 9,4 C 87 % 1018,1 hPa 0,0 l/m 0 min 2 min 23 W/m 6,4 km/h (2 Bft) 100,00 %
17.04.2019 07:42 11,2 C 10,0 C 9,4 C 87 % 1018,1 hPa 0,0 l/m 0 min 2 min 24 W/m 9,7 km/h (2 Bft) 100,00 %
17.04.2019 07:44 11,2 C 10,0 C 9,4 C 87 % 1018,1 hPa 0,0 l/m 0 min 2 min 26 W/m 9,7 km/h (2 Bft) 100,00 %
17.04.2019 07:46 11,2 C 10,0 C 9,4 C 87 % 1018,2 hPa 0,0 l/m 0 min 2 min 26 W/m 6,4 km/h (2 Bft) 100,00 %
17.04.2019 07:48 11,2 C 10,0 C 9,4 C 87 % 1018,2 hPa 0,0 l/m 0 min 2 min 26 W/m 6,4 km/h (2 Bft) 95,74 %
17.04.2019 07:50 11,2 C 10,0 C 9,4 C 87 % 1018,2 hPa 0,0 l/m 0 min 2 min 26 W/m 9,7 km/h (2 Bft) 97,83 %
17.04.2019 07:52 11,2 C 10,0 C 9,4 C 87 % 1018,1 hPa 0,0 l/m 0 min 2 min 27 W/m 9,7 km/h (2 Bft) 97,87 %
17.04.2019 07:54 11,2 C 10,0 C 9,4 C 87 % 1018,2 hPa 0,0 l/m 0 min 2 min 28 W/m 9,7 km/h (2 Bft) 97,87 %
17.04.2019 07:56 11,2 C 10,0 C 9,4 C 87 % 1018,1 hPa 0,0 l/m 0 min 2 min 30 W/m 19,3 km/h (3 Bft) 97,87 %
17.04.2019 07:58 11,2 C 10,0 C 9,4 C 87 % 1018,2 hPa 0,0 l/m 0 min 0 min 30 W/m 6,4 km/h (2 Bft) 97,87 %
17.04.2019 08:00 11,2 C 10,6 C 9,4 C 88 % 1018,2 hPa 0,0 l/m 0 min 0 min 31 W/m 12,9 km/h (3 Bft) 97,87 %
17.04.2019 08:02 11,2 C 10,6 C 9,4 C 88 % 1018,2 hPa 0,0 l/m 0 min 2 min 32 W/m 12,9 km/h (3 Bft) 97,83 %
17.04.2019 08:04 11,1 C 10,6 C 9,4 C 88 % 1018,2 hPa 0,0 l/m 0 min 2 min 32 W/m 12,9 km/h (3 Bft) 97,37 %
17.04.2019 08:06 11,1 C 10,6 C 10,0 C 88 % 1018,2 hPa 0,0 l/m 0 min 0 min 30 W/m 12,9 km/h (3 Bft) 96,67 %
17.04.2019 08:08 11,1 C 10,6 C 10,0 C 88 % 1018,2 hPa 0,0 l/m 0 min 2 min 30 W/m 12,9 km/h (3 Bft) 97,22 %
17.04.2019 08:10 11,2 C 10,6 C 10,0 C 88 % 1018,3 hPa 0,0 l/m 0 min 0 min 30 W/m 6,4 km/h (2 Bft) 97,83 %
17.04.2019 08:12 11,1 C 10,6 C 10,0 C 88 % 1018,3 hPa 0,0 l/m 0 min 0 min 28 W/m 22,5 km/h (4 Bft) 97,87 %
17.04.2019 08:14 11,2 C 10,6 C 10,0 C 88 % 1018,3 hPa 0,0 l/m 0 min 0 min 30 W/m 9,7 km/h (2 Bft) 95,65 %
17.04.2019 08:16 11,1 C 10,6 C 10,0 C 88 % 1018,3 hPa 0,0 l/m 0 min 0 min 30 W/m 16,1 km/h (3 Bft) 97,87 %
17.04.2019 08:18 11,2 C 10,6 C 10,0 C 88 % 1018,4 hPa 0,0 l/m 0 min 2 min 31 W/m 9,7 km/h (2 Bft) 97,92 %
17.04.2019 08:20 11,2 C 10,6 C 10,0 C 88 % 1018,4 hPa 0,0 l/m 0 min 0 min 32 W/m 12,9 km/h (3 Bft) 97,87 %
17.04.2019 08:22 11,2 C 10,6 C 10,0 C 88 % 1018,4 hPa 0,0 l/m 0 min 0 min 33 W/m 6,4 km/h (2 Bft) 97,87 %
17.04.2019 08:24 11,2 C 10,6 C 10,0 C 88 % 1018,4 hPa 0,0 l/m 0 min 0 min 36 W/m 9,7 km/h (2 Bft) 95,74 %
17.04.2019 08:26 11,2 C 10,6 C 10,0 C 88 % 1018,4 hPa 0,0 l/m 0 min 0 min 38 W/m 9,7 km/h (2 Bft) 97,83 %
17.04.2019 08:28 11,2 C 10,6 C 10,0 C 88 % 1018,4 hPa 0,0 l/m 0 min 2 min 41 W/m 9,7 km/h (2 Bft) 97,87 %
17.04.2019 08:30 11,2 C 10,6 C 10,0 C 88 % 1018,5 hPa 0,0 l/m 0 min 2 min 46 W/m 9,7 km/h (2 Bft) 97,87 %
17.04.2019 08:32 11,2 C 10,6 C 10,0 C 88 % 1018,5 hPa 0,0 l/m 0 min 0 min 48 W/m 6,4 km/h (2 Bft) 95,92 %
17.04.2019 08:34 11,2 C 10,6 C 10,0 C 88 % 1018,5 hPa 0,0 l/m 0 min 0 min 51 W/m 6,4 km/h (2 Bft) 100,00 %
17.04.2019 08:36 11,2 C 10,6 C 10,0 C 88 % 1018,5 hPa 0,0 l/m 0 min 2 min 57 W/m 6,4 km/h (2 Bft) 100,00 %
17.04.2019 08:38 11,2 C 10,6 C 10,0 C 88 % 1018,5 hPa 0,0 l/m 0 min 2 min 65 W/m 6,4 km/h (2 Bft) 100,00 %
17.04.2019 08:40 11,2 C 11,1 C 10,6 C 89 % 1018,5 hPa 0,0 l/m 0 min 2 min 73 W/m 6,4 km/h (2 Bft) 100,00 %
17.04.2019 08:42 11,2 C 11,1 C 10,6 C 89 % 1018,5 hPa 0,0 l/m 0 min 0 min 81 W/m 6,4 km/h (2 Bft) 97,87 %
17.04.2019 08:44 11,3 C 11,1 C 10,6 C 89 % 1018,5 hPa 0,0 l/m 0 min 2 min 89 W/m 6,4 km/h (2 Bft) 100,00 %
17.04.2019 08:46 11,3 C 11,1 C 10,6 C 89 % 1018,4 hPa 0,0 l/m 0 min 2 min 97 W/m 6,4 km/h (2 Bft) 100,00 %
17.04.2019 08:48 11,3 C 11,1 C 10,6 C 89 % 1018,5 hPa 0,0 l/m 0 min 2 min 102 W/m 6,4 km/h (2 Bft) 100,00 %
17.04.2019 08:50 11,3 C 11,1 C 10,6 C 89 % 1018,5 hPa 0,0 l/m 0 min 2 min 106 W/m 6,4 km/h (2 Bft) 97,83 %
17.04.2019 08:52 11,4 C 11,1 C 10,6 C 89 % 1018,5 hPa 0,0 l/m 0 min 2 min 111 W/m 9,7 km/h (2 Bft) 100,00 %
17.04.2019 08:54 11,4 C 11,1 C 10,6 C 89 % 1018,6 hPa 0,0 l/m 0 min 2 min 113 W/m 19,3 km/h (3 Bft) 95,74 %
17.04.2019 08:56 11,4 C 11,1 C 10,6 C 89 % 1018,5 hPa 0,0 l/m 0 min 0 min 117 W/m 9,7 km/h (2 Bft) 97,87 %
17.04.2019 08:58 11,4 C 11,1 C 10,6 C 89 % 1018,6 hPa 0,0 l/m 0 min 2 min 121 W/m 9,7 km/h (2 Bft) 100,00 %
17.04.2019 09:00 11,5 C 11,1 C 10,6 C 89 % 1018,6 hPa 0,0 l/m 0 min 2 min 125 W/m 16,1 km/h (3 Bft) 100,00 %
17.04.2019 09:02 11,5 C 11,1 C 10,6 C 89 % 1018,6 hPa 0,0 l/m 0 min 2 min 128 W/m 12,9 km/h (3 Bft) 100,00 %
17.04.2019 09:04 11,6 C 11,1 C 10,6 C 89 % 1018,7 hPa 0,0 l/m 0 min 2 min 132 W/m 19,3 km/h (3 Bft) 97,87 %
17.04.2019 09:06 11,6 C 11,7 C 10,6 C 89 % 1018,6 hPa 0,0 l/m 0 min 2 min 136 W/m 12,9 km/h (3 Bft) 97,87 %
17.04.2019 09:08 11,6 C 11,7 C 10,6 C 89 % 1018,6 hPa 0,0 l/m 0 min 0 min 140 W/m 16,1 km/h (3 Bft) 97,87 %
17.04.2019 09:10 11,6 C 11,7 C 11,1 C 89 % 1018,5 hPa 0,0 l/m 0 min 0 min 146 W/m 12,9 km/h (3 Bft) 100,00 %
17.04.2019 09:12 11,7 C 11,7 C 11,1 C 89 % 1018,6 hPa 0,0 l/m 0 min 0 min 150 W/m 9,7 km/h (2 Bft) 97,83 %
17.04.2019 09:14 11,7 C 12,2 C 11,1 C 89 % 1018,5 hPa 0,0 l/m 0 min 0 min 153 W/m 9,7 km/h (2 Bft) 97,87 %
17.04.2019 09:16 11,7 C 12,2 C 11,1 C 89 % 1018,6 hPa 0,0 l/m 0 min 2 min 155 W/m 9,7 km/h (2 Bft) 97,87 %
17.04.2019 09:18 11,8 C 11,7 C 11,1 C 89 % 1018,6 hPa 0,0 l/m 0 min 2 min 155 W/m 9,7 km/h (2 Bft) 97,87 %
17.04.2019 09:20 11,8 C 12,2 C 11,7 C 89 % 1018,6 hPa 0,0 l/m 0 min 0 min 162 W/m 9,7 km/h (2 Bft) 97,87 %
17.04.2019 09:22 11,8 C 11,7 C 11,7 C 89 % 1018,7 hPa 0,0 l/m 0 min 0 min 171 W/m 19,3 km/h (3 Bft) 97,87 %
17.04.2019 09:24 11,9 C 12,2 C 11,7 C 89 % 1018,7 hPa 0,0 l/m 0 min 0 min 181 W/m 22,5 km/h (4 Bft) 100,00 %
17.04.2019 09:26 11,9 C 12,2 C 11,7 C 89 % 1018,7 hPa 0,0 l/m 0 min 0 min 188 W/m 9,7 km/h (2 Bft) 93,62 %
17.04.2019 09:28 11,9 C 12,2 C 12,2 C 89 % 1018,7 hPa 0,0 l/m 0 min 0 min 191 W/m 16,1 km/h (3 Bft) 95,74 %
17.04.2019 09:30 12,0 C 12,2 C 12,2 C 89 % 1018,7 hPa 0,0 l/m 0 min 0 min 193 W/m 25,7 km/h (4 Bft) 95,74 %
17.04.2019 09:32 12,0 C 12,2 C 12,2 C 88 % 1018,7 hPa 0,0 l/m 0 min 0 min 192 W/m 16,1 km/h (3 Bft) 95,74 %
17.04.2019 09:34 12,1 C 12,2 C 12,2 C 88 % 1018,8 hPa 0,0 l/m 0 min 0 min 181 W/m 16,1 km/h (3 Bft) 95,74 %
17.04.2019 09:36 12,1 C 12,2 C 12,2 C 88 % 1018,8 hPa 0,0 l/m 0 min 0 min 159 W/m 25,7 km/h (4 Bft) 95,65 %
17.04.2019 09:38 12,1 C 12,2 C 12,2 C 88 % 1018,8 hPa 0,0 l/m 0 min 2 min 148 W/m 25,7 km/h (4 Bft) 95,74 %
17.04.2019 09:40 12,1 C 12,2 C 11,7 C 88 % 1018,9 hPa 0,0 l/m 0 min 0 min 128 W/m 9,7 km/h (2 Bft) 95,74 %
17.04.2019 09:42 12,1 C 12,2 C 11,7 C 88 % 1018,8 hPa 0,0 l/m 0 min 0 min 110 W/m 22,5 km/h (4 Bft) 95,74 %
17.04.2019 09:44 12,2 C 12,2 C 11,7 C 87 % 1018,8 hPa 0,0 l/m 0 min 0 min 104 W/m 12,9 km/h (3 Bft) 95,74 %
17.04.2019 09:46 12,2 C 12,2 C 11,7 C 87 % 1018,8 hPa 0,0 l/m 0 min 0 min 111 W/m 16,1 km/h (3 Bft) 95,74 %
17.04.2019 09:48 12,2 C 12,2 C 11,7 C 87 % 1018,9 hPa 0,0 l/m 0 min 0 min 132 W/m 9,7 km/h (2 Bft) 95,65 %
17.04.2019 09:50 12,2 C 12,2 C 11,7 C 87 % 1019,0 hPa 0,0 l/m 0 min 0 min 135 W/m 9,7 km/h (2 Bft) 93,62 %
17.04.2019 09:52 12,2 C 12,2 C 11,7 C 87 % 1018,9 hPa 0,0 l/m 0 min 0 min 114 W/m 16,1 km/h (3 Bft) 93,62 %
17.04.2019 09:54 12,2 C 12,2 C 11,7 C 88 % 1019,0 hPa 0,0 l/m 0 min 0 min 117 W/m 16,1 km/h (3 Bft) 93,62 %
17.04.2019 09:56 12,2 C 12,2 C 11,7 C 88 % 1018,9 hPa 0,0 l/m 0 min 0 min 123 W/m 16,1 km/h (3 Bft) 95,74 %
17.04.2019 09:58 12,2 C 12,2 C 11,7 C 88 % 1019,0 hPa 0,0 l/m 0 min 0 min 119 W/m 16,1 km/h (3 Bft) 97,87 %
17.04.2019 10:00 12,2 C 12,2 C 11,7 C 88 % 1019,0 hPa 0,0 l/m 0 min 0 min 125 W/m 9,7 km/h (2 Bft) 97,14 %
17.04.2019 10:02 12,3 C 12,2 C 11,7 C 88 % 1019,0 hPa 0,0 l/m 0 min 0 min 121 W/m 19,3 km/h (3 Bft) 96,23 %
17.04.2019 10:04 12,3 C 12,2 C 11,7 C 88 % 1019,0 hPa 0,0 l/m 0 min 0 min 118 W/m 16,1 km/h (3 Bft) 98,04 %
17.04.2019 10:06 12,3 C 12,2 C 11,7 C 88 % 1019,0 hPa 0,0 l/m 0 min 0 min 129 W/m 29,0 km/h (5 Bft) 96,00 %
17.04.2019 10:08 12,3 C 12,2 C 11,7 C 88 % 1019,1 hPa 0,0 l/m 0 min 0 min 130 W/m 16,1 km/h (3 Bft) 97,22 %
17.04.2019 10:10 12,3 C 12,2 C 11,7 C 88 % 1019,1 hPa 0,0 l/m 0 min 0 min 132 W/m 16,1 km/h (3 Bft) 98,28 %
17.04.2019 10:12 12,3 C 12,2 C 11,7 C 88 % 1019,1 hPa 0,0 l/m 0 min 0 min 129 W/m 25,7 km/h (4 Bft) 97,22 %
17.04.2019 10:14 12,3 C 12,2 C 12,2 C 88 % 1019,2 hPa 0,0 l/m 0 min 0 min 135 W/m 22,5 km/h (4 Bft) 97,83 %
17.04.2019 10:16 12,3 C 12,2 C 12,2 C 88 % 1019,1 hPa 0,0 l/m 0 min 0 min 135 W/m 12,9 km/h (3 Bft) 97,87 %
17.04.2019 10:18 12,3 C 12,2 C 12,2 C 88 % 1019,2 hPa 0,0 l/m 0 min 0 min 139 W/m 16,1 km/h (3 Bft) 95,74 %
17.04.2019 10:20 12,3 C 12,2 C 12,2 C 88 % 1019,2 hPa 0,0 l/m 0 min 0 min 137 W/m 12,9 km/h (3 Bft) 97,87 %
17.04.2019 10:22 12,3 C 12,2 C 12,2 C 88 % 1019,2 hPa 0,0 l/m 0 min 0 min 146 W/m 25,7 km/h (4 Bft) 97,87 %
17.04.2019 10:24 12,4 C 12,8 C 12,2 C 88 % 1019,2 hPa 0,0 l/m 0 min 0 min 179 W/m 22,5 km/h (4 Bft) 100,00 %
17.04.2019 10:26 12,4 C 12,8 C 12,8 C 88 % 1019,1 hPa 0,0 l/m 0 min 0 min 190 W/m 12,9 km/h (3 Bft) 100,00 %
17.04.2019 10:28 12,4 C 12,8 C 12,2 C 88 % 1019,2 hPa 0,0 l/m 0 min 0 min 182 W/m 16,1 km/h (3 Bft) 95,74 %
17.04.2019 10:30 12,4 C 12,8 C 12,2 C 88 % 1019,1 hPa 0,0 l/m 0 min 0 min 185 W/m 22,5 km/h (4 Bft) 97,87 %
17.04.2019 10:32 12,5 C 12,8 C 12,8 C 88 % 1019,2 hPa 0,0 l/m 0 min 0 min 180 W/m 12,9 km/h (3 Bft) 97,87 %
17.04.2019 10:34 12,6 C 12,8 C 12,8 C 88 % 1019,2 hPa 0,0 l/m 0 min 0 min 177 W/m 16,1 km/h (3 Bft) 97,87 %
17.04.2019 10:36 12,6 C 12,8 C 12,8 C 88 % 1019,2 hPa 0,0 l/m 0 min 0 min 186 W/m 16,1 km/h (3 Bft) 96,55 %
17.04.2019 10:38 12,6 C 13,3 C 12,8 C 88 % 1019,2 hPa 0,0 l/m 0 min 0 min 201 W/m 19,3 km/h (3 Bft) 97,14 %
17.04.2019 10:40 12,7 C 13,3 C 12,8 C 88 % 1019,3 hPa 0,0 l/m 0 min 0 min 208 W/m 22,5 km/h (4 Bft) 93,62 %
17.04.2019 10:42 12,7 C 12,8 C 12,8 C 88 % 1019,3 hPa 0,0 l/m 0 min 0 min 195 W/m 29,0 km/h (5 Bft) 97,87 %
17.04.2019 10:44 12,7 C 12,8 C 12,8 C 87 % 1019,3 hPa 0,0 l/m 0 min 0 min 199 W/m 22,5 km/h (4 Bft) 97,87 %
17.04.2019 10:46 12,7 C 12,8 C 12,8 C 87 % 1019,4 hPa 0,0 l/m 0 min 0 min 214 W/m 25,7 km/h (4 Bft) 95,74 %
17.04.2019 10:48 12,8 C 12,8 C 12,8 C 86 % 1019,4 hPa 0,0 l/m 0 min 0 min 230 W/m 29,0 km/h (5 Bft) 97,83 %
17.04.2019 10:50 12,8 C 12,8 C 12,8 C 86 % 1019,3 hPa 0,0 l/m 0 min 0 min 201 W/m 25,7 km/h (4 Bft) 97,87 %
17.04.2019 10:52 12,8 C 12,8 C 12,8 C 86 % 1019,4 hPa 0,0 l/m 0 min 0 min 181 W/m 25,7 km/h (4 Bft) 97,87 %
17.04.2019 10:54 12,8 C 12,8 C 12,8 C 86 % 1019,4 hPa 0,0 l/m 0 min 0 min 214 W/m 29,0 km/h (5 Bft) 97,87 %
17.04.2019 10:56 12,8 C 13,3 C 12,8 C 86 % 1019,4 hPa 0,0 l/m 0 min 0 min 196 W/m 19,3 km/h (3 Bft) 97,87 %
17.04.2019 10:58 12,9 C 13,3 C 12,8 C 86 % 1019,4 hPa 0,0 l/m 0 min 0 min 181 W/m 22,5 km/h (4 Bft) 97,87 %
17.04.2019 11:00 12,9 C 12,8 C 12,8 C 86 % 1019,4 hPa 0,0 l/m 0 min 0 min 181 W/m 35,4 km/h (5 Bft) 97,83 %
17.04.2019 11:02 12,9 C 12,8 C 12,8 C 86 % 1019,4 hPa 0,0 l/m 0 min 0 min 203 W/m 32,2 km/h (5 Bft) 97,87 %
17.04.2019 11:04 12,9 C 12,8 C 12,8 C 86 % 1019,4 hPa 0,0 l/m 0 min 0 min 195 W/m 22,5 km/h (4 Bft) 95,74 %
17.04.2019 11:06 12,9 C 13,3 C 12,8 C 86 % 1019,4 hPa 0,0 l/m 0 min 0 min 204 W/m 22,5 km/h (4 Bft) 96,61 %
17.04.2019 11:08 12,9 C 13,3 C 12,8 C 86 % 1019,4 hPa 0,0 l/m 0 min 2 min 222 W/m 19,3 km/h (3 Bft) 97,83 %
17.04.2019 11:10 12,9 C 13,3 C 12,8 C 86 % 1019,4 hPa 0,0 l/m 0 min 0 min 237 W/m 22,5 km/h (4 Bft) 100,00 %
17.04.2019 11:12 13,0 C 13,9 C 13,3 C 86 % 1019,5 hPa 0,0 l/m 0 min 0 min 273 W/m 16,1 km/h (3 Bft) 100,00 %
17.04.2019 11:14 13,0 C 13,9 C 13,3 C 86 % 1019,5 hPa 0,0 l/m 0 min 0 min 303 W/m 19,3 km/h (3 Bft) 97,87 %
17.04.2019 11:16 13,1 C 13,9 C 13,9 C 86 % 1019,4 hPa 0,0 l/m 0 min 0 min 315 W/m 29,0 km/h (5 Bft) 100,00 %
17.04.2019 11:18 13,1 C 14,4 C 13,9 C 86 % 1019,4 hPa 0,0 l/m 2 min 0 min 349 W/m 22,5 km/h (4 Bft) 100,00 %
17.04.2019 11:20 13,2 C 14,4 C 14,4 C 86 % 1019,4 hPa 0,0 l/m 2 min 0 min 381 W/m 19,3 km/h (3 Bft) 100,00 %
17.04.2019 11:22 13,2 C 15,0 C 14,4 C 86 % 1019,4 hPa 0,0 l/m 2 min 0 min 408 W/m 32,2 km/h (5 Bft) 97,87 %
17.04.2019 11:24 13,3 C 15,0 C 15,0 C 85 % 1019,4 hPa 0,0 l/m 2 min 0 min 432 W/m 22,5 km/h (4 Bft) 100,00 %
17.04.2019 11:26 13,4 C 15,6 C 15,6 C 85 % 1019,3 hPa 0,0 l/m 2 min 0 min 471 W/m 22,5 km/h (4 Bft) 100,00 %
17.04.2019 11:28 13,5 C 15,0 C 15,0 C 85 % 1019,4 hPa 0,0 l/m 2 min 0 min 436 W/m 22,5 km/h (4 Bft) 100,00 %
17.04.2019 11:30 13,6 C 15,6 C 15,0 C 85 % 1019,4 hPa 0,0 l/m 2 min 0 min 401 W/m 19,3 km/h (3 Bft) 100,00 %
17.04.2019 11:32 13,7 C 15,0 C 15,0 C 84 % 1019,4 hPa 0,0 l/m 2 min 0 min 344 W/m 16,1 km/h (3 Bft) 97,87 %
17.04.2019 11:34 13,8 C 15,0 C 15,0 C 84 % 1019,4 hPa 0,0 l/m 2 min 0 min 359 W/m 22,5 km/h (4 Bft) 100,00 %
17.04.2019 11:36 13,8 C 15,0 C 15,0 C 84 % 1019,5 hPa 0,0 l/m 2 min 0 min 359 W/m 22,5 km/h (4 Bft) 100,00 %
17.04.2019 11:38 13,9 C 15,0 C 15,0 C 83 % 1019,5 hPa 0,0 l/m 2 min 0 min 345 W/m 22,5 km/h (4 Bft) 100,00 %
17.04.2019 11:40 14,0 C 15,0 C 15,0 C 83 % 1019,4 hPa 0,0 l/m 2 min 0 min 346 W/m 25,7 km/h (4 Bft) 100,00 %
17.04.2019 11:42 14,0 C 15,6 C 15,0 C 83 % 1019,4 hPa 0,0 l/m 2 min 0 min 375 W/m 19,3 km/h (3 Bft) 97,87 %
17.04.2019 11:44 14,1 C 15,6 C 15,6 C 83 % 1019,4 hPa 0,0 l/m 2 min 0 min 344 W/m 22,5 km/h (4 Bft) 100,00 %
17.04.2019 11:46 14,2 C 15,0 C 15,0 C 82 % 1019,4 hPa 0,0 l/m 0 min 0 min 308 W/m 16,1 km/h (3 Bft) 97,87 %
17.04.2019 11:48 14,2 C 15,0 C 15,0 C 82 % 1019,5 hPa 0,0 l/m 0 min 0 min 319 W/m 19,3 km/h (3 Bft) 100,00 %
17.04.2019 11:50 14,2 C 15,0 C 15,0 C 81 % 1019,4 hPa 0,0 l/m 0 min 0 min 314 W/m 19,3 km/h (3 Bft) 97,87 %
17.04.2019 11:52 14,2 C 15,0 C 15,0 C 81 % 1019,4 hPa 0,0 l/m 0 min 0 min 278 W/m 25,7 km/h (4 Bft) 97,96 %
17.04.2019 11:54 14,2 C 15,0 C 15,0 C 81 % 1019,6 hPa 0,0 l/m 0 min 0 min 311 W/m 22,5 km/h (4 Bft) 100,00 %
17.04.2019 11:56 14,2 C 15,6 C 15,0 C 81 % 1019,5 hPa 0,0 l/m 2 min 0 min 346 W/m 22,5 km/h (4 Bft) 100,00 %
17.04.2019 11:58 14,3 C 15,6 C 15,6 C 80 % 1019,5 hPa 0,0 l/m 2 min 0 min 345 W/m 19,3 km/h (3 Bft) 97,83 %
17.04.2019 12:00 14,3 C 15,6 C 15,0 C 80 % 1019,5 hPa 0,0 l/m 0 min 0 min 343 W/m 25,7 km/h (4 Bft) 97,87 %
17.04.2019 12:02 14,3 C 15,6 C 15,0 C 79 % 1019,5 hPa 0,0 l/m 0 min 0 min 331 W/m 25,7 km/h (4 Bft) 97,87 %
17.04.2019 12:04 14,4 C 15,6 C 15,0 C 79 % 1019,5 hPa 0,0 l/m 0 min 0 min 345 W/m 19,3 km/h (3 Bft) 97,87 %
17.04.2019 12:07 14,4 C 15,6 C 15,6 C 79 % 1019,5 hPa 0,0 l/m 3 min 0 min 376 W/m 22,5 km/h (4 Bft) 97,87 %
17.04.2019 12:08 14,5 C 16,1 C 15,6 C 78 % 1019,5 hPa 0,0 l/m 1 min 0 min 364 W/m 22,5 km/h (4 Bft) 96,81 %
17.04.2019 12:10 14,6 C 16,1 C 15,6 C 78 % 1019,5 hPa 0,0 l/m 2 min 0 min 396 W/m 25,7 km/h (4 Bft) 97,83 %
17.04.2019 12:12 14,6 C 15,6 C 15,6 C 78 % 1019,6 hPa 0,0 l/m 2 min 0 min 385 W/m 35,4 km/h (5 Bft) 97,87 %
17.04.2019 12:14 14,6 C 15,6 C 15,6 C 77 % 1019,6 hPa 0,0 l/m 0 min 0 min 339 W/m 29,0 km/h (5 Bft) 97,87 %
17.04.2019 12:16 14,7 C 15,6 C 15,6 C 78 % 1019,6 hPa 0,0 l/m 0 min 0 min 277 W/m 22,5 km/h (4 Bft) 95,83 %
17.04.2019 12:18 14,7 C 15,0 C 15,0 C 78 % 1019,6 hPa 0,0 l/m 0 min 0 min 225 W/m 25,7 km/h (4 Bft) 97,87 %
17.04.2019 12:20 14,7 C 14,4 C 14,4 C 77 % 1019,5 hPa 0,0 l/m 0 min 0 min 185 W/m 25,7 km/h (4 Bft) 100,00 %
17.04.2019 12:22 14,7 C 13,9 C 14,4 C 77 % 1019,5 hPa 0,0 l/m 0 min 0 min 133 W/m 25,7 km/h (4 Bft) 97,83 %
17.04.2019 12:24 14,7 C 13,9 C 13,9 C 77 % 1019,5 hPa 0,0 l/m 0 min 0 min 112 W/m 35,4 km/h (5 Bft) 97,87 %
17.04.2019 12:26 14,6 C 13,9 C 13,9 C 77 % 1019,5 hPa 0,0 l/m 0 min 0 min 102 W/m 25,7 km/h (4 Bft) 97,87 %
17.04.2019 12:28 14,6 C 13,9 C 13,9 C 77 % 1019,6 hPa 0,0 l/m 0 min 0 min 76 W/m 19,3 km/h (3 Bft) 97,87 %
17.04.2019 12:30 14,5 C 13,9 C 13,3 C 77 % 1019,6 hPa 0,0 l/m 0 min 0 min 55 W/m 16,1 km/h (3 Bft) 97,87 %
17.04.2019 12:32 14,4 C 13,9 C 13,3 C 77 % 1019,6 hPa 0,0 l/m 0 min 0 min 47 W/m 19,3 km/h (3 Bft) 97,83 %
17.04.2019 12:34 14,4 C 13,3 C 13,3 C 77 % 1019,6 hPa 0,0 l/m 0 min 0 min 52 W/m 22,5 km/h (4 Bft) 95,74 %
17.04.2019 12:36 14,4 C 13,9 C 13,3 C 78 % 1019,6 hPa 0,0 l/m 0 min 0 min 68 W/m 22,5 km/h (4 Bft) 93,62 %
17.04.2019 12:38 14,3 C 13,9 C 13,3 C 78 % 1019,5 hPa 0,0 l/m 0 min 0 min 115 W/m 16,1 km/h (3 Bft) 97,87 %
17.04.2019 12:40 14,3 C 14,4 C 13,9 C 79 % 1019,5 hPa 0,0 l/m 0 min 0 min 189 W/m 22,5 km/h (4 Bft) 93,62 %
17.04.2019 12:42 14,2 C 14,4 C 13,9 C 79 % 1019,4 hPa 0,0 l/m 0 min 0 min 212 W/m 19,3 km/h (3 Bft) 95,74 %
17.04.2019 12:44 14,2 C 14,4 C 13,9 C 79 % 1019,5 hPa 0,0 l/m 0 min 0 min 175 W/m 16,1 km/h (3 Bft) 95,74 %
17.04.2019 12:46 14,2 C 13,9 C 13,9 C 79 % 1019,6 hPa 0,0 l/m 0 min 0 min 145 W/m 25,7 km/h (4 Bft) 93,48 %
17.04.2019 12:48 14,2 C 13,9 C 13,9 C 79 % 1019,6 hPa 0,0 l/m 0 min 0 min 128 W/m 22,5 km/h (4 Bft) 95,74 %
17.04.2019 12:50 14,2 C 13,9 C 13,9 C 79 % 1019,6 hPa 0,0 l/m 0 min 0 min 136 W/m 25,7 km/h (4 Bft) 95,74 %
17.04.2019 12:52 14,2 C 14,4 C 13,9 C 79 % 1019,6 hPa 0,0 l/m 0 min 0 min 180 W/m 19,3 km/h (3 Bft) 95,74 %
17.04.2019 12:54 14,2 C 14,4 C 13,9 C 78 % 1019,6 hPa 0,0 l/m 0 min 0 min 238 W/m 29,0 km/h (5 Bft) 95,74 %
17.04.2019 12:56 14,2 C 14,4 C 14,4 C 78 % 1019,6 hPa 0,0 l/m 0 min 0 min 295 W/m 22,5 km/h (4 Bft) 93,62 %
17.04.2019 12:58 14,2 C 15,0 C 15,0 C 79 % 1019,6 hPa 0,0 l/m 0 min 0 min 335 W/m 19,3 km/h (3 Bft) 95,65 %
17.04.2019 13:00 14,2 C 15,6 C 15,0 C 79 % 1019,6 hPa 0,0 l/m 0 min 0 min 351 W/m 35,4 km/h (5 Bft) 93,62 %
17.04.2019 13:02 14,2 C 15,0 C 15,0 C 78 % 1019,7 hPa 0,0 l/m 0 min 0 min 352 W/m 32,2 km/h (5 Bft) 92,45 %
17.04.2019 13:04 14,3 C 15,6 C 15,6 C 78 % 1019,7 hPa 0,0 l/m 0 min 0 min 353 W/m 22,5 km/h (4 Bft) 97,87 %
17.04.2019 13:06 14,4 C 15,6 C 15,6 C 78 % 1019,7 hPa 0,0 l/m 0 min 0 min 356 W/m 32,2 km/h (5 Bft) 95,65 %
17.04.2019 13:08 14,4 C 15,6 C 15,6 C 78 % 1019,7 hPa 0,0 l/m 0 min 0 min 359 W/m 22,5 km/h (4 Bft) 95,74 %
17.04.2019 13:10 14,5 C 15,6 C 15,6 C 78 % 1019,7 hPa 0,0 l/m 0 min 0 min 359 W/m 22,5 km/h (4 Bft) 95,74 %
17.04.2019 13:12 14,6 C 15,6 C 15,6 C 78 % 1019,7 hPa 0,0 l/m 0 min 0 min 356 W/m 29,0 km/h (5 Bft) 95,12 %
17.04.2019 13:14 14,6 C 16,1 C 15,6 C 78 % 1019,7 hPa 0,0 l/m 0 min 0 min 345 W/m 22,5 km/h (4 Bft) 95,74 %
17.04.2019 13:16 14,7 C 15,6 C 15,6 C 78 % 1019,7 hPa 0,0 l/m 0 min 0 min 338 W/m 29,0 km/h (5 Bft) 94,34 %
17.04.2019 13:18 14,8 C 16,1 C 15,6 C 77 % 1019,7 hPa 0,0 l/m 0 min 0 min 333 W/m 19,3 km/h (3 Bft) 93,48 %
17.04.2019 13:20 14,8 C 15,6 C 15,6 C 77 % 1019,7 hPa 0,0 l/m 0 min 0 min 343 W/m 22,5 km/h (4 Bft) 93,62 %
17.04.2019 13:22 14,9 C 15,6 C 16,1 C 77 % 1019,7 hPa 0,0 l/m 0 min 0 min 368 W/m 29,0 km/h (5 Bft) 95,74 %
17.04.2019 13:24 14,9 C 15,6 C 16,1 C 76 % 1019,7 hPa 0,0 l/m 0 min 0 min 358 W/m 25,7 km/h (4 Bft) 95,12 %
17.04.2019 13:26 14,9 C 16,1 C 16,1 C 76 % 1019,7 hPa 0,0 l/m 0 min 0 min 359 W/m 25,7 km/h (4 Bft) 95,74 %
17.04.2019 13:28 15,0 C 16,1 C 16,1 C 77 % 1019,7 hPa 0,0 l/m 0 min 0 min 361 W/m 16,1 km/h (3 Bft) 97,87 %
17.04.2019 13:30 15,1 C 16,1 C 16,1 C 77 % 1019,7 hPa 0,0 l/m 0 min 0 min 344 W/m 25,7 km/h (4 Bft) 97,87 %
17.04.2019 13:32 15,2 C 16,1 C 16,1 C 76 % 1019,7 hPa 0,0 l/m 2 min 0 min 376 W/m 25,7 km/h (4 Bft) 97,83 %
17.04.2019 13:34 15,2 C 16,1 C 16,1 C 76 % 1019,6 hPa 0,0 l/m 2 min 0 min 377 W/m 25,7 km/h (4 Bft) 97,87 %
17.04.2019 13:36 15,3 C 16,1 C 16,1 C 75 % 1019,7 hPa 0,0 l/m 0 min 0 min 326 W/m 22,5 km/h (4 Bft) 95,74 %
17.04.2019 13:38 15,3 C 16,1 C 16,1 C 75 % 1019,8 hPa 0,0 l/m 0 min 0 min 292 W/m 29,0 km/h (5 Bft) 97,87 %
17.04.2019 13:40 15,3 C 16,1 C 16,1 C 75 % 1019,7 hPa 0,0 l/m 0 min 0 min 291 W/m 19,3 km/h (3 Bft) 100,00 %
17.04.2019 13:42 15,3 C 16,1 C 16,1 C 75 % 1019,7 hPa 0,0 l/m 0 min 0 min 305 W/m 25,7 km/h (4 Bft) 100,00 %
17.04.2019 13:44 15,4 C 16,1 C 16,1 C 74 % 1019,7 hPa 0,0 l/m 0 min 0 min 315 W/m 25,7 km/h (4 Bft) 100,00 %
17.04.2019 13:46 15,4 C 16,1 C 16,1 C 74 % 1019,7 hPa 0,0 l/m 0 min 0 min 320 W/m 25,7 km/h (4 Bft) 96,23 %
17.04.2019 13:48 15,4 C 15,6 C 16,1 C 74 % 1019,7 hPa 0,0 l/m 0 min 0 min 299 W/m 32,2 km/h (5 Bft) 100,00 %
17.04.2019 13:50 15,4 C 15,6 C 16,1 C 74 % 1019,7 hPa 0,0 l/m 0 min 0 min 271 W/m 25,7 km/h (4 Bft) 100,00 %
17.04.2019 13:52 15,4 C 16,1 C 16,1 C 74 % 1019,8 hPa 0,0 l/m 0 min 0 min 253 W/m 32,2 km/h (5 Bft) 100,00 %
17.04.2019 13:54 15,5 C 16,1 C 16,1 C 74 % 1019,8 hPa 0,0 l/m 0 min 0 min 258 W/m 22,5 km/h (4 Bft) 97,83 %
17.04.2019 13:56 15,5 C 16,1 C 16,1 C 74 % 1019,8 hPa 0,0 l/m 0 min 0 min 274 W/m 25,7 km/h (4 Bft) 97,87 %
17.04.2019 13:58 15,5 C 16,1 C 16,1 C 74 % 1019,8 hPa 0,0 l/m 0 min 0 min 256 W/m 19,3 km/h (3 Bft) 100,00 %
17.04.2019 14:00 15,5 C 15,6 C 16,1 C 74 % 1019,8 hPa 0,0 l/m 0 min 0 min 248 W/m 22,5 km/h (4 Bft) 100,00 %
17.04.2019 14:02 15,6 C 15,6 C 15,6 C 74 % 1019,8 hPa 0,0 l/m 0 min 0 min 237 W/m 22,5 km/h (4 Bft) 100,00 %
17.04.2019 14:04 15,6 C 15,6 C 15,6 C 74 % 1019,8 hPa 0,0 l/m 0 min 0 min 210 W/m 19,3 km/h (3 Bft) 100,00 %
17.04.2019 14:06 15,6 C 15,6 C 15,6 C 74 % 1019,8 hPa 0,0 l/m 0 min 0 min 182 W/m 22,5 km/h (4 Bft) 100,00 %
17.04.2019 14:08 15,5 C 15,6 C 15,0 C 74 % 1019,8 hPa 0,0 l/m 0 min 0 min 171 W/m 22,5 km/h (4 Bft) 100,00 %
17.04.2019 14:10 15,5 C 15,6 C 15,0 C 74 % 1019,8 hPa 0,0 l/m 0 min 0 min 179 W/m 16,1 km/h (3 Bft) 100,00 %
17.04.2019 14:12 15,5 C 15,6 C 15,6 C 74 % 1019,9 hPa 0,0 l/m 0 min 0 min 200 W/m 22,5 km/h (4 Bft) 97,87 %
17.04.2019 14:14 15,5 C 15,6 C 15,6 C 74 % 1019,8 hPa 0,0 l/m 0 min 0 min 218 W/m 22,5 km/h (4 Bft) 100,00 %
17.04.2019 14:16 15,5 C 15,6 C 15,6 C 74 % 1019,8 hPa 0,0 l/m 0 min 0 min 223 W/m 19,3 km/h (3 Bft) 97,87 %
17.04.2019 14:18 15,5 C 15,6 C 15,6 C 74 % 1019,8 hPa 0,0 l/m 0 min 0 min 229 W/m 16,1 km/h (3 Bft) 91,30 %
17.04.2019 14:20 15,5 C 16,1 C 16,1 C 74 % 1019,8 hPa 0,0 l/m 0 min 0 min 261 W/m 12,9 km/h (3 Bft) 100,00 %
17.04.2019 14:22 15,5 C 16,1 C 16,1 C 74 % 1019,9 hPa 0,0 l/m 0 min 0 min 293 W/m 19,3 km/h (3 Bft) 97,87 %
17.04.2019 14:24 15,6 C 16,1 C 16,1 C 74 % 1019,9 hPa 0,0 l/m 0 min 0 min 283 W/m 12,9 km/h (3 Bft) 97,87 %
17.04.2019 14:26 15,6 C 16,1 C 16,1 C 74 % 1019,8 hPa 0,0 l/m 0 min 0 min 247 W/m 22,5 km/h (4 Bft) 91,49 %
17.04.2019 14:28 15,6 C 15,6 C 16,1 C 73 % 1019,8 hPa 0,0 l/m 0 min 0 min 225 W/m 19,3 km/h (3 Bft) 89,36 %
17.04.2019 14:30 15,6 C 15,6 C 16,1 C 73 % 1019,8 hPa 0,0 l/m 0 min 0 min 234 W/m 19,3 km/h (3 Bft) 91,30 %
17.04.2019 14:32 15,6 C 15,6 C 16,1 C 73 % 1019,8 hPa 0,0 l/m 0 min 0 min 247 W/m 12,9 km/h (3 Bft) 93,62 %
17.04.2019 14:34 15,7 C 16,1 C 16,1 C 74 % 1019,8 hPa 0,0 l/m 0 min 0 min 219 W/m 12,9 km/h (3 Bft) 97,87 %
17.04.2019 14:36 15,7 C 15,6 C 15,6 C 74 % 1019,8 hPa 0,0 l/m 0 min 0 min 194 W/m 19,3 km/h (3 Bft) 96,61 %
17.04.2019 14:38 15,7 C 15,6 C 15,6 C 74 % 1019,8 hPa 0,0 l/m 0 min 0 min 203 W/m 12,9 km/h (3 Bft) 84,78 %
17.04.2019 14:40 15,7 C 15,6 C 15,6 C 74 % 1019,8 hPa 0,0 l/m 0 min 0 min 254 W/m 12,9 km/h (3 Bft) 94,59 %
17.04.2019 14:42 15,7 C 16,1 C 16,1 C 74 % 1019,8 hPa 0,0 l/m 0 min 0 min 264 W/m 9,7 km/h (2 Bft) 84,78 %
17.04.2019 14:44 15,7 C 16,1 C 16,1 C 74 % 1019,8 hPa 0,0 l/m 0 min 0 min 276 W/m 12,9 km/h (3 Bft) 85,11 %
17.04.2019 14:46 15,7 C 16,1 C 16,1 C 74 % 1019,8 hPa 0,0 l/m 0 min 0 min 298 W/m 16,1 km/h (3 Bft) 82,98 %
17.04.2019 14:48 15,7 C 16,7 C 16,1 C 74 % 1019,8 hPa 0,0 l/m 0 min 0 min 302 W/m 9,7 km/h (2 Bft) 91,49 %
17.04.2019 14:50 15,7 C 16,1 C 16,1 C 74 % 1019,8 hPa 0,0 l/m 0 min 0 min 264 W/m 9,7 km/h (2 Bft) 80,85 %
17.04.2019 14:52 15,7 C 16,1 C 16,1 C 74 % 1019,8 hPa 0,0 l/m 0 min 0 min 244 W/m 9,7 km/h (2 Bft) 73,91 %
17.04.2019 14:54 15,7 C 16,1 C 15,6 C 74 % 1019,8 hPa 0,0 l/m 0 min 0 min 204 W/m 6,4 km/h (2 Bft) 91,49 %
17.04.2019 14:56 15,8 C 16,1 C 15,6 C 74 % 1019,8 hPa 0,0 l/m 0 min 0 min 178 W/m 6,4 km/h (2 Bft) 91,49 %
17.04.2019 14:58 15,8 C 15,6 C 15,6 C 74 % 1019,8 hPa 0,0 l/m 0 min 0 min 140 W/m 9,7 km/h (2 Bft) 82,98 %
17.04.2019 15:00 15,8 C 15,6 C 15,0 C 73 % 1019,8 hPa 0,0 l/m 0 min 0 min 115 W/m 9,7 km/h (2 Bft) 79,17 %
17.04.2019 15:02 15,8 C 15,0 C 15,0 C 73 % 1019,8 hPa 0,0 l/m 0 min 0 min 96 W/m 9,7 km/h (2 Bft) 93,62 %
17.04.2019 15:04 15,8 C 15,0 C 15,0 C 73 % 1019,9 hPa 0,0 l/m 0 min 0 min 92 W/m 9,7 km/h (2 Bft) 97,83 %
17.04.2019 15:06 15,8 C 15,0 C 15,0 C 73 % 1019,8 hPa 0,0 l/m 0 min 0 min 99 W/m 9,7 km/h (2 Bft) 94,92 %
17.04.2019 15:08 15,8 C 15,0 C 15,0 C 73 % 1019,9 hPa 0,0 l/m 0 min 0 min 104 W/m 12,9 km/h (3 Bft) 88,57 %
17.04.2019 15:10 15,7 C 15,0 C 15,0 C 73 % 1019,8 hPa 0,0 l/m 0 min 0 min 109 W/m 9,7 km/h (2 Bft) 89,36 %
17.04.2019 15:12 15,7 C 15,6 C 15,0 C 73 % 1019,8 hPa 0,0 l/m 0 min 0 min 126 W/m 9,7 km/h (2 Bft) 87,23 %
17.04.2019 15:14 15,7 C 15,6 C 15,6 C 73 % 1019,8 hPa 0,0 l/m 0 min 0 min 172 W/m 6,4 km/h (2 Bft) 89,36 %
17.04.2019 15:16 15,7 C 16,1 C 16,1 C 74 % 1019,8 hPa 0,0 l/m 0 min 0 min 221 W/m 6,4 km/h (2 Bft) 80,43 %
17.04.2019 15:18 15,7 C 16,1 C 16,1 C 73 % 1019,9 hPa 0,0 l/m 0 min 0 min 276 W/m 6,4 km/h (2 Bft) 97,87 %
17.04.2019 15:20 15,7 C 16,7 C 16,7 C 74 % 1019,8 hPa 0,0 l/m 0 min 0 min 291 W/m 9,7 km/h (2 Bft) 95,74 %
17.04.2019 15:22 15,8 C 16,7 C 16,7 C 74 % 1019,8 hPa 0,0 l/m 0 min 0 min 283 W/m 9,7 km/h (2 Bft) 91,67 %
17.04.2019 15:24 15,8 C 17,2 C 16,7 C 74 % 1019,8 hPa 0,0 l/m 0 min 0 min 261 W/m 6,4 km/h (2 Bft) 93,62 %
17.04.2019 15:26 15,8 C 16,7 C 16,7 C 73 % 1019,8 hPa 0,0 l/m 0 min 0 min 252 W/m 12,9 km/h (3 Bft) 93,62 %
17.04.2019 15:28 15,8 C 16,7 C 16,7 C 73 % 1019,8 hPa 0,0 l/m 0 min 0 min 253 W/m 6,4 km/h (2 Bft) 84,78 %
17.04.2019 15:30 15,8 C 17,2 C 16,7 C 73 % 1019,7 hPa 0,0 l/m 0 min 0 min 262 W/m 6,4 km/h (2 Bft) 89,36 %
17.04.2019 15:32 15,9 C 17,2 C 17,2 C 73 % 1019,7 hPa 0,0 l/m 0 min 0 min 263 W/m 6,4 km/h (2 Bft) 91,84 %
17.04.2019 15:34 15,9 C 17,2 C 17,2 C 73 % 1019,7 hPa 0,0 l/m 0 min 0 min 264 W/m 6,4 km/h (2 Bft) 95,74 %
17.04.2019 15:36 16,0 C 17,2 C 17,2 C 72 % 1019,7 hPa 0,0 l/m 0 min 0 min 273 W/m 9,7 km/h (2 Bft) 93,62 %
17.04.2019 15:38 16,1 C 17,2 C 17,2 C 72 % 1019,7 hPa 0,0 l/m 0 min 0 min 278 W/m 6,4 km/h (2 Bft) 85,11 %
17.04.2019 15:40 16,1 C 17,8 C 17,2 C 72 % 1019,7 hPa 0,0 l/m 0 min 0 min 279 W/m 6,4 km/h (2 Bft) 86,96 %
17.04.2019 15:42 16,1 C 17,8 C 17,2 C 72 % 1019,7 hPa 0,0 l/m 0 min 0 min 307 W/m 9,7 km/h (2 Bft) 91,49 %
17.04.2019 15:44 16,2 C 17,8 C 17,2 C 72 % 1019,7 hPa 0,0 l/m 2 min 0 min 326 W/m 9,7 km/h (2 Bft) 91,49 %
17.04.2019 15:46 16,2 C 17,8 C 17,8 C 72 % 1019,7 hPa 0,0 l/m 2 min 0 min 327 W/m 6,4 km/h (2 Bft) 82,98 %
17.04.2019 15:48 16,3 C 18,9 C 17,8 C 72 % 1019,7 hPa 0,0 l/m 2 min 0 min 346 W/m 6,4 km/h (2 Bft) 89,36 %
17.04.2019 15:50 16,4 C 20,0 C 18,3 C 72 % 1019,7 hPa 0,0 l/m 2 min 0 min 387 W/m 6,4 km/h (2 Bft) 84,78 %
17.04.2019 15:52 16,4 C 20,0 C 17,8 C 71 % 1019,7 hPa 0,0 l/m 2 min 0 min 635 W/m 3,2 km/h (1 Bft) 91,49 %
17.04.2019 15:54 16,5 C 20,0 C 18,3 C 72 % 1019,6 hPa 0,0 l/m 2 min 0 min 599 W/m 6,4 km/h (2 Bft) 91,49 %
17.04.2019 15:56 16,6 C 20,0 C 18,3 C 72 % 1019,7 hPa 0,0 l/m 2 min 0 min 366 W/m 9,7 km/h (2 Bft) 89,36 %
17.04.2019 15:58 16,7 C 18,9 C 17,8 C 71 % 1019,7 hPa 0,0 l/m 2 min 0 min 324 W/m 9,7 km/h (2 Bft) 93,62 %
17.04.2019 16:00 16,7 C 18,9 C 17,2 C 70 % 1019,7 hPa 0,0 l/m 0 min 0 min 291 W/m 6,4 km/h (2 Bft) 91,49 %
17.04.2019 16:02 16,8 C 18,3 C 17,2 C 70 % 1019,7 hPa 0,0 l/m 0 min 0 min 260 W/m 6,4 km/h (2 Bft) 89,58 %
17.04.2019 16:04 16,8 C 18,3 C 17,8 C 70 % 1019,7 hPa 0,0 l/m 0 min 0 min 248 W/m 6,4 km/h (2 Bft) 93,62 %
17.04.2019 16:06 16,9 C 17,8 C 17,2 C 70 % 1019,7 hPa 0,0 l/m 0 min 0 min 239 W/m 6,4 km/h (2 Bft) 93,62 %
17.04.2019 16:08 16,9 C 18,3 C 17,2 C 70 % 1019,6 hPa 0,0 l/m 0 min 0 min 254 W/m 3,2 km/h (1 Bft) 95,74 %
17.04.2019 16:10 16,9 C 18,9 C 17,2 C 70 % 1019,7 hPa 0,0 l/m 0 min 0 min 289 W/m 6,4 km/h (2 Bft) 93,62 %
17.04.2019 16:12 17,0 C 18,9 C 17,2 C 70 % 1019,6 hPa 0,0 l/m 0 min 0 min 281 W/m 6,4 km/h (2 Bft) 95,74 %
17.04.2019 16:14 17,0 C 18,9 C 17,8 C 69 % 1019,6 hPa 0,0 l/m 0 min 0 min 287 W/m 6,4 km/h (2 Bft) 95,65 %
17.04.2019 16:16 17,1 C 20,6 C 20,0 C 69 % 1019,7 hPa 0,0 l/m 2 min 0 min 508 W/m 9,7 km/h (2 Bft) 97,87 %
17.04.2019 16:18 17,2 C 20,6 C 19,4 C 70 % 1019,6 hPa 0,0 l/m 2 min 0 min 605 W/m 3,2 km/h (1 Bft) 95,74 %
17.04.2019 16:20 17,2 C 19,4 C 18,3 C 70 % 1019,7 hPa 0,0 l/m 0 min 0 min 186 W/m 6,4 km/h (2 Bft) 97,87 %
17.04.2019 16:22 17,2 C 21,1 C 18,3 C 69 % 1019,6 hPa 0,0 l/m 0 min 0 min 223 W/m 9,7 km/h (2 Bft) 97,87 %
17.04.2019 16:24 17,3 C 21,1 C 18,3 C 69 % 1019,7 hPa 0,0 l/m 2 min 0 min 617 W/m 6,4 km/h (2 Bft) 97,83 %
17.04.2019 16:26 17,4 C 20,6 C 18,3 C 68 % 1019,6 hPa 0,0 l/m 2 min 0 min 311 W/m 6,4 km/h (2 Bft) 97,87 %
17.04.2019 16:28 17,4 C 21,1 C 18,3 C 68 % 1019,7 hPa 0,0 l/m 2 min 0 min 708 W/m 6,4 km/h (2 Bft) 100,00 %
17.04.2019 16:30 17,4 C 20,6 C 17,8 C 67 % 1019,6 hPa 0,0 l/m 2 min 0 min 715 W/m 6,4 km/h (2 Bft) 97,87 %
17.04.2019 16:32 17,6 C 19,4 C 17,8 C 68 % 1019,6 hPa 0,0 l/m 2 min 0 min 295 W/m 9,7 km/h (2 Bft) 97,87 %
17.04.2019 16:34 17,6 C 21,1 C 18,3 C 68 % 1019,5 hPa 0,0 l/m 0 min 0 min 204 W/m 6,4 km/h (2 Bft) 100,00 %
17.04.2019 16:36 17,8 C 23,3 C 19,4 C 70 % 1019,5 hPa 0,0 l/m 2 min 0 min 548 W/m 9,7 km/h (2 Bft) 100,00 %
17.04.2019 16:38 17,9 C 23,9 C 20,0 C 70 % 1019,6 hPa 0,0 l/m 2 min 0 min 693 W/m 6,4 km/h (2 Bft) 100,00 %
17.04.2019 16:40 18,1 C 24,4 C 21,1 C 69 % 1019,4 hPa 0,0 l/m 2 min 0 min 674 W/m 6,4 km/h (2 Bft) 97,87 %
17.04.2019 16:42 18,2 C 24,4 C 22,2 C 69 % 1019,5 hPa 0,0 l/m 2 min 0 min 662 W/m 9,7 km/h (2 Bft) 100,00 %
17.04.2019 16:44 18,4 C 23,3 C 21,7 C 67 % 1019,5 hPa 0,0 l/m 2 min 0 min 542 W/m 6,4 km/h (2 Bft) 100,00 %
17.04.2019 16:46 18,6 C 23,3 C 21,7 C 68 % 1019,5 hPa 0,0 l/m 2 min 0 min 590 W/m 9,7 km/h (2 Bft) 100,00 %
17.04.2019 16:48 18,6 C 22,2 C 21,1 C 66 % 1019,5 hPa 0,0 l/m 2 min 0 min 481 W/m 6,4 km/h (2 Bft) 100,00 %
17.04.2019 16:50 18,7 C 20,6 C 18,9 C 64 % 1019,5 hPa 0,0 l/m 0 min 0 min 147 W/m 6,4 km/h (2 Bft) 97,87 %
17.04.2019 16:52 18,7 C 18,9 C 17,8 C 64 % 1019,5 hPa 0,0 l/m 0 min 0 min 97 W/m 6,4 km/h (2 Bft) 100,00 %
17.04.2019 16:54 18,7 C 17,8 C 17,2 C 63 % 1019,5 hPa 0,0 l/m 0 min 0 min 84 W/m 3,2 km/h (1 Bft) 97,87 %
17.04.2019 16:56 18,7 C 17,2 C 16,7 C 64 % 1019,5 hPa 0,0 l/m 0 min 0 min 77 W/m 3,2 km/h (1 Bft) 100,00 %
17.04.2019 16:58 18,6 C 17,2 C 16,7 C 64 % 1019,5 hPa 0,0 l/m 0 min 0 min 86 W/m 6,4 km/h (2 Bft) 100,00 %
17.04.2019 17:00 18,6 C 17,2 C 16,1 C 63 % 1019,5 hPa 0,0 l/m 0 min 0 min 103 W/m 6,4 km/h (2 Bft) 100,00 %
17.04.2019 17:02 18,5 C 17,8 C 16,7 C 63 % 1019,5 hPa 0,0 l/m 0 min 0 min 114 W/m 6,4 km/h (2 Bft) 97,87 %
17.04.2019 17:04 18,5 C 18,9 C 17,8 C 64 % 1019,5 hPa 0,0 l/m 0 min 0 min 213 W/m 6,4 km/h (2 Bft) 100,00 %
17.04.2019 17:06 18,4 C 20,0 C 17,8 C 64 % 1019,5 hPa 0,0 l/m 2 min 0 min 503 W/m 6,4 km/h (2 Bft) 100,00 %
17.04.2019 17:08 18,4 C 20,6 C 18,3 C 65 % 1019,4 hPa 0,0 l/m 2 min 0 min 492 W/m 3,2 km/h (1 Bft) 97,87 %
17.04.2019 17:10 18,4 C 21,7 C 19,4 C 65 % 1019,5 hPa 0,0 l/m 2 min 0 min 496 W/m 3,2 km/h (1 Bft) 100,00 %
17.04.2019 17:12 18,4 C 21,7 C 20,6 C 64 % 1019,4 hPa 0,0 l/m 2 min 0 min 490 W/m 9,7 km/h (2 Bft) 100,00 %
17.04.2019 17:14 18,4 C 21,7 C 21,1 C 64 % 1019,5 hPa 0,0 l/m 2 min 0 min 491 W/m 6,4 km/h (2 Bft) 100,00 %
17.04.2019 17:16 18,5 C 21,7 C 21,1 C 63 % 1019,4 hPa 0,0 l/m 2 min 0 min 482 W/m 9,7 km/h (2 Bft) 100,00 %
17.04.2019 17:18 18,5 C 20,6 C 20,0 C 63 % 1019,5 hPa 0,0 l/m 2 min 0 min 480 W/m 9,7 km/h (2 Bft) 100,00 %
17.04.2019 17:20 18,5 C 20,6 C 19,4 C 63 % 1019,5 hPa 0,0 l/m 2 min 0 min 477 W/m 9,7 km/h (2 Bft) 100,00 %
17.04.2019 17:22 18,6 C 21,1 C 18,9 C 63 % 1019,5 hPa 0,0 l/m 2 min 0 min 482 W/m 9,7 km/h (2 Bft) 100,00 %
17.04.2019 17:24 18,7 C 21,7 C 18,9 C 64 % 1019,4 hPa 0,0 l/m 2 min 0 min 479 W/m 6,4 km/h (2 Bft) 97,83 %
17.04.2019 17:26 18,7 C 21,1 C 18,9 C 63 % 1019,5 hPa 0,0 l/m 2 min 0 min 472 W/m 9,7 km/h (2 Bft) 100,00 %
17.04.2019 17:28 18,8 C 20,6 C 18,3 C 62 % 1019,5 hPa 0,0 l/m 2 min 0 min 461 W/m 12,9 km/h (3 Bft) 100,00 %
17.04.2019 17:30 18,8 C 20,6 C 18,3 C 62 % 1019,5 hPa 0,0 l/m 2 min 0 min 464 W/m 9,7 km/h (2 Bft) 100,00 %
17.04.2019 17:32 18,9 C 21,1 C 18,3 C 62 % 1019,5 hPa 0,0 l/m 2 min 0 min 443 W/m 9,7 km/h (2 Bft) 100,00 %
17.04.2019 17:34 18,9 C 21,1 C 18,3 C 62 % 1019,5 hPa 0,0 l/m 2 min 0 min 453 W/m 16,1 km/h (3 Bft) 100,00 %
17.04.2019 17:36 19,0 C 20,6 C 18,3 C 62 % 1019,5 hPa 0,0 l/m 2 min 0 min 449 W/m 9,7 km/h (2 Bft) 98,28 %
17.04.2019 17:38 19,1 C 20,6 C 18,9 C 62 % 1019,5 hPa 0,0 l/m 2 min 0 min 430 W/m 9,7 km/h (2 Bft) 100,00 %
17.04.2019 17:40 19,1 C 21,1 C 18,3 C 62 % 1019,5 hPa 0,0 l/m 2 min 0 min 466 W/m 9,7 km/h (2 Bft) 100,00 %
17.04.2019 17:42 19,2 C 21,1 C 18,9 C 61 % 1019,4 hPa 0,0 l/m 2 min 0 min 476 W/m 12,9 km/h (3 Bft) 100,00 %
17.04.2019 17:44 19,2 C 20,6 C 18,9 C 61 % 1019,5 hPa 0,0 l/m 2 min 0 min 510 W/m 19,3 km/h (3 Bft) 100,00 %
17.04.2019 17:46 19,3 C 21,1 C 18,9 C 61 % 1019,4 hPa 0,0 l/m 2 min 0 min 530 W/m 9,7 km/h (2 Bft) 100,00 %
17.04.2019 17:48 19,3 C 21,1 C 18,9 C 61 % 1019,5 hPa 0,0 l/m 2 min 0 min 539 W/m 9,7 km/h (2 Bft) 98,00 %
17.04.2019 17:50 19,4 C 21,1 C 18,9 C 61 % 1019,4 hPa 0,0 l/m 2 min 0 min 547 W/m 9,7 km/h (2 Bft) 97,83 %
17.04.2019 17:52 19,4 C 21,1 C 18,9 C 61 % 1019,5 hPa 0,0 l/m 2 min 0 min 525 W/m 9,7 km/h (2 Bft) 97,87 %
17.04.2019 17:54 19,5 C 21,1 C 18,9 C 60 % 1019,4 hPa 0,0 l/m 2 min 0 min 483 W/m 6,4 km/h (2 Bft) 97,87 %
17.04.2019 17:56 19,6 C 21,1 C 18,9 C 60 % 1019,4 hPa 0,0 l/m 2 min 0 min 437 W/m 9,7 km/h (2 Bft) 95,74 %
17.04.2019 17:58 19,6 C 20,6 C 18,9 C 60 % 1019,4 hPa 0,0 l/m 2 min 0 min 430 W/m 12,9 km/h (3 Bft) 97,87 %
17.04.2019 18:00 19,6 C 20,6 C 18,3 C 60 % 1019,4 hPa 0,0 l/m 2 min 0 min 401 W/m 19,3 km/h (3 Bft) 95,74 %
17.04.2019 18:02 19,6 C 20,0 C 18,3 C 60 % 1019,4 hPa 0,0 l/m 2 min 0 min 377 W/m 12,9 km/h (3 Bft) 97,83 %
17.04.2019 18:04 19,6 C 20,6 C 18,3 C 60 % 1019,4 hPa 0,0 l/m 2 min 0 min 389 W/m 9,7 km/h (2 Bft) 97,87 %
17.04.2019 18:08 19,6 C 19,4 C 18,3 C 59 % 1019,3 hPa 0,0 l/m 4 min 0 min 386 W/m 16,1 km/h (3 Bft) 97,87 %
17.04.2019 18:10 19,6 C 19,4 C 18,3 C 59 % 1019,4 hPa 0,0 l/m 2 min 0 min 199 W/m 12,9 km/h (3 Bft) 97,87 %
17.04.2019 18:12 19,5 C 18,9 C 18,3 C 59 % 1019,5 hPa 0,0 l/m 2 min 0 min 352 W/m 16,1 km/h (3 Bft) 97,83 %
17.04.2019 18:14 19,4 C 19,4 C 17,8 C 58 % 1019,5 hPa 0,0 l/m 2 min 0 min 387 W/m 12,9 km/h (3 Bft) 100,00 %
17.04.2019 18:16 19,4 C 19,4 C 18,3 C 59 % 1019,5 hPa 0,0 l/m 2 min 0 min 391 W/m 9,7 km/h (2 Bft) 97,87 %
17.04.2019 18:18 19,4 C 20,0 C 18,3 C 59 % 1019,5 hPa 0,0 l/m 2 min 0 min 389 W/m 6,4 km/h (2 Bft) 91,49 %
17.04.2019 18:20 19,4 C 20,0 C 18,3 C 59 % 1019,5 hPa 0,0 l/m 2 min 0 min 382 W/m 3,2 km/h (1 Bft) 97,87 %
17.04.2019 18:22 19,4 C 19,4 C 18,3 C 59 % 1019,4 hPa 0,0 l/m 2 min 0 min 372 W/m 16,1 km/h (3 Bft) 97,87 %
17.04.2019 18:24 19,4 C 19,4 C 17,8 C 59 % 1019,4 hPa 0,0 l/m 2 min 0 min 350 W/m 16,1 km/h (3 Bft) 95,65 %
17.04.2019 18:26 19,4 C 18,9 C 17,8 C 59 % 1019,4 hPa 0,0 l/m 2 min 0 min 334 W/m 6,4 km/h (2 Bft) 95,74 %
17.04.2019 18:28 19,4 C 18,9 C 17,8 C 59 % 1019,4 hPa 0,0 l/m 2 min 0 min 325 W/m 9,7 km/h (2 Bft) 93,62 %
17.04.2019 18:30 19,3 C 18,3 C 17,2 C 59 % 1019,4 hPa 0,0 l/m 2 min 0 min 320 W/m 12,9 km/h (3 Bft) 95,74 %
17.04.2019 18:32 19,3 C 18,3 C 17,2 C 59 % 1019,3 hPa 0,0 l/m 2 min 0 min 309 W/m 12,9 km/h (3 Bft) 95,74 %
17.04.2019 18:34 19,2 C 18,3 C 17,2 C 59 % 1019,4 hPa 0,0 l/m 2 min 0 min 220 W/m 9,7 km/h (2 Bft) 95,74 %
17.04.2019 18:36 19,2 C 17,8 C 17,2 C 59 % 1019,4 hPa 0,0 l/m 0 min 0 min 132 W/m 19,3 km/h (3 Bft) 96,55 %
17.04.2019 18:38 19,1 C 17,8 C 17,2 C 60 % 1019,4 hPa 0,0 l/m 0 min 0 min 89 W/m 6,4 km/h (2 Bft) 94,29 %
17.04.2019 18:40 19,1 C 17,8 C 17,2 C 60 % 1019,4 hPa 0,0 l/m 0 min 0 min 84 W/m 6,4 km/h (2 Bft) 95,74 %
17.04.2019 18:42 19,0 C 17,8 C 17,2 C 60 % 1019,3 hPa 0,0 l/m 0 min 0 min 88 W/m 9,7 km/h (2 Bft) 95,74 %
17.04.2019 18:44 18,9 C 17,8 C 17,2 C 60 % 1019,4 hPa 0,0 l/m 0 min 0 min 96 W/m 6,4 km/h (2 Bft) 97,87 %
17.04.2019 18:46 18,9 C 17,8 C 17,2 C 60 % 1019,3 hPa 0,0 l/m 0 min 0 min 100 W/m 6,4 km/h (2 Bft) 95,74 %
17.04.2019 18:48 18,8 C 17,8 C 17,2 C 61 % 1019,3 hPa 0,0 l/m 0 min 0 min 98 W/m 9,7 km/h (2 Bft) 95,65 %
17.04.2019 18:50 18,8 C 17,8 C 17,2 C 60 % 1019,3 hPa 0,0 l/m 0 min 0 min 96 W/m 9,7 km/h (2 Bft) 95,74 %
17.04.2019 18:52 18,7 C 17,8 C 17,2 C 61 % 1019,4 hPa 0,0 l/m 0 min 0 min 91 W/m 6,4 km/h (2 Bft) 93,62 %
17.04.2019 18:54 18,7 C 17,8 C 16,7 C 61 % 1019,3 hPa 0,0 l/m 0 min 0 min 87 W/m 9,7 km/h (2 Bft) 95,74 %
17.04.2019 18:56 18,6 C 17,8 C 16,7 C 61 % 1019,3 hPa 0,0 l/m 0 min 0 min 84 W/m 6,4 km/h (2 Bft) 95,74 %
17.04.2019 18:58 18,6 C 17,8 C 16,7 C 62 % 1019,3 hPa 0,0 l/m 0 min 0 min 86 W/m 9,7 km/h (2 Bft) 95,74 %
17.04.2019 19:00 18,5 C 17,8 C 16,7 C 62 % 1019,3 hPa 0,0 l/m 0 min 0 min 92 W/m 6,4 km/h (2 Bft) 95,65 %
17.04.2019 19:02 18,4 C 17,8 C 16,7 C 62 % 1019,3 hPa 0,0 l/m 0 min 0 min 93 W/m 6,4 km/h (2 Bft) 95,74 %
17.04.2019 19:04 18,4 C 17,8 C 16,7 C 62 % 1019,3 hPa 0,0 l/m 0 min 0 min 91 W/m 6,4 km/h (2 Bft) 95,74 %
17.04.2019 19:06 18,4 C 17,8 C 16,7 C 63 % 1019,3 hPa 0,0 l/m 0 min 0 min 89 W/m 9,7 km/h (2 Bft) 94,92 %
17.04.2019 19:08 18,3 C 17,8 C 16,7 C 63 % 1019,2 hPa 0,0 l/m 0 min 0 min 90 W/m 12,9 km/h (3 Bft) 97,14 %
17.04.2019 19:10 18,3 C 17,8 C 16,1 C 63 % 1019,3 hPa 0,0 l/m 0 min 0 min 93 W/m 9,7 km/h (2 Bft) 95,74 %
17.04.2019 19:12 18,3 C 17,8 C 16,1 C 63 % 1019,3 hPa 0,0 l/m 0 min 0 min 97 W/m 9,7 km/h (2 Bft) 97,83 %
17.04.2019 19:14 18,3 C 17,8 C 15,6 C 64 % 1019,3 hPa 0,0 l/m 2 min 0 min 100 W/m 9,7 km/h (2 Bft) 93,62 %
17.04.2019 19:16 18,2 C 17,8 C 15,6 C 64 % 1019,2 hPa 0,0 l/m 2 min 0 min 112 W/m 9,7 km/h (2 Bft) 95,74 %
17.04.2019 19:18 18,2 C 17,8 C 16,1 C 64 % 1019,3 hPa 0,0 l/m 2 min 0 min 132 W/m 6,4 km/h (2 Bft) 97,87 %
17.04.2019 19:20 18,2 C 17,8 C 16,1 C 65 % 1019,3 hPa 0,0 l/m 2 min 0 min 142 W/m 3,2 km/h (1 Bft) 97,87 %
17.04.2019 19:22 18,1 C 17,8 C 16,1 C 65 % 1019,3 hPa 0,0 l/m 2 min 0 min 140 W/m 6,4 km/h (2 Bft) 93,62 %
17.04.2019 19:24 18,1 C 17,8 C 16,1 C 65 % 1019,3 hPa 0,0 l/m 2 min 0 min 115 W/m 6,4 km/h (2 Bft) 97,83 %
17.04.2019 19:26 18,1 C 17,8 C 16,1 C 65 % 1019,3 hPa 0,0 l/m 2 min 0 min 89 W/m 6,4 km/h (2 Bft) 95,74 %
17.04.2019 19:28 18,1 C 17,2 C 16,1 C 65 % 1019,3 hPa 0,0 l/m 0 min 0 min 68 W/m 9,7 km/h (2 Bft) 95,74 %
17.04.2019 19:30 18,1 C 17,2 C 15,6 C 65 % 1019,3 hPa 0,0 l/m 0 min 0 min 59 W/m 6,4 km/h (2 Bft) 100,00 %
17.04.2019 19:32 18,1 C 17,2 C 15,6 C 65 % 1019,4 hPa 0,0 l/m 0 min 0 min 58 W/m 9,7 km/h (2 Bft) 100,00 %
17.04.2019 19:34 18,0 C 17,2 C 15,6 C 65 % 1019,4 hPa 0,0 l/m 0 min 0 min 55 W/m 6,4 km/h (2 Bft) 100,00 %
17.04.2019 19:36 18,0 C 17,2 C 15,6 C 65 % 1019,4 hPa 0,0 l/m 0 min 0 min 52 W/m 9,7 km/h (2 Bft) 100,00 %
17.04.2019 19:38 17,9 C 17,2 C 15,6 C 64 % 1019,5 hPa 0,0 l/m 0 min 0 min 49 W/m 9,7 km/h (2 Bft) 100,00 %
17.04.2019 19:40 17,9 C 17,2 C 15,6 C 64 % 1019,5 hPa 0,0 l/m 0 min 0 min 48 W/m 9,7 km/h (2 Bft) 100,00 %
17.04.2019 19:42 17,8 C 16,7 C 15,6 C 64 % 1019,5 hPa 0,0 l/m 0 min 0 min 46 W/m 9,7 km/h (2 Bft) 100,00 %
17.04.2019 19:44 17,8 C 16,7 C 15,0 C 64 % 1019,5 hPa 0,0 l/m 0 min 0 min 40 W/m 12,9 km/h (3 Bft) 100,00 %
17.04.2019 19:46 17,7 C 16,7 C 15,0 C 64 % 1019,5 hPa 0,0 l/m 0 min 0 min 34 W/m 9,7 km/h (2 Bft) 100,00 %
17.04.2019 19:48 17,7 C 16,7 C 15,0 C 64 % 1019,6 hPa 0,0 l/m 0 min 0 min 28 W/m 9,7 km/h (2 Bft) 100,00 %
17.04.2019 19:50 17,6 C 16,7 C 15,0 C 65 % 1019,5 hPa 0,0 l/m 0 min 0 min 24 W/m 9,7 km/h (2 Bft) 100,00 %
17.04.2019 19:52 17,5 C 16,7 C 15,0 C 65 % 1019,5 hPa 0,0 l/m 0 min 0 min 23 W/m 9,7 km/h (2 Bft) 100,00 %
17.04.2019 19:54 17,4 C 16,1 C 15,0 C 65 % 1019,6 hPa 0,0 l/m 0 min 0 min 23 W/m 9,7 km/h (2 Bft) 100,00 %
17.04.2019 19:56 17,4 C 16,1 C 15,0 C 66 % 1019,6 hPa 0,0 l/m 0 min 0 min 23 W/m 9,7 km/h (2 Bft) 100,00 %
17.04.2019 19:58 17,3 C 16,1 C 14,4 C 66 % 1019,6 hPa 0,0 l/m 0 min 0 min 25 W/m 12,9 km/h (3 Bft) 100,00 %
17.04.2019 20:00 17,3 C 16,1 C 14,4 C 66 % 1019,6 hPa 0,0 l/m 0 min 0 min 27 W/m 19,3 km/h (3 Bft) 97,87 %
17.04.2019 20:02 17,2 C 16,1 C 14,4 C 66 % 1019,7 hPa 0,0 l/m 0 min 0 min 29 W/m 6,4 km/h (2 Bft) 100,00 %
17.04.2019 20:04 17,2 C 16,1 C 14,4 C 67 % 1019,7 hPa 0,0 l/m 0 min 0 min 29 W/m 6,4 km/h (2 Bft) 100,00 %
17.04.2019 20:06 17,1 C 16,1 C 14,4 C 67 % 1019,7 hPa 0,0 l/m 0 min 0 min 26 W/m 6,4 km/h (2 Bft) 100,00 %
17.04.2019 20:08 17,1 C 16,1 C 14,4 C 67 % 1019,6 hPa 0,0 l/m 0 min 0 min 24 W/m 6,4 km/h (2 Bft) 100,00 %
17.04.2019 20:10 17,1 C 15,6 C 14,4 C 67 % 1019,7 hPa 0,0 l/m 0 min 0 min 20 W/m 3,2 km/h (1 Bft) 100,00 %
17.04.2019 20:12 17,0 C 15,6 C 13,9 C 68 % 1019,7 hPa 0,0 l/m 0 min 0 min 18 W/m 3,2 km/h (1 Bft) 100,00 %
17.04.2019 20:14 17,0 C 15,6 C 13,9 C 68 % 1019,8 hPa 0,0 l/m 0 min 0 min 16 W/m 6,4 km/h (2 Bft) 100,00 %
17.04.2019 20:16 16,9 C 15,6 C 13,9 C 67 % 1019,8 hPa 0,0 l/m 0 min 0 min 15 W/m 3,2 km/h (1 Bft) 100,00 %
17.04.2019 20:18 16,9 C 15,0 C 13,9 C 67 % 1019,7 hPa 0,0 l/m 0 min 0 min 13 W/m 3,2 km/h (1 Bft) 97,87 %
17.04.2019 20:20 16,9 C 15,0 C 13,9 C 67 % 1019,6 hPa 0,0 l/m 0 min 0 min 12 W/m 6,4 km/h (2 Bft) 100,00 %
17.04.2019 20:22 16,9 C 15,0 C 13,3 C 68 % 1019,7 hPa 0,0 l/m 0 min 0 min 11 W/m 3,2 km/h (1 Bft) 100,00 %
17.04.2019 20:24 16,8 C 15,0 C 13,3 C 68 % 1019,7 hPa 0,0 l/m 0 min 0 min 9 W/m 3,2 km/h (1 Bft) 97,87 %
17.04.2019 20:26 16,8 C 14,4 C 13,3 C 68 % 1019,7 hPa 0,0 l/m 0 min 0 min 7 W/m 0,0 km/h (0 Bft) 97,87 %
17.04.2019 20:28 16,8 C 14,4 C 13,3 C 68 % 1019,8 hPa 0,0 l/m 0 min 0 min 6 W/m 3,2 km/h (1 Bft) 97,87 %
17.04.2019 20:30 16,7 C 14,4 C 13,3 C 68 % 1019,7 hPa 0,0 l/m 0 min 0 min 5 W/m 3,2 km/h (1 Bft) 97,83 %
17.04.2019 20:32 16,7 C 14,4 C 12,8 C 68 % 1019,7 hPa 0,0 l/m 0 min 0 min 1 W/m 3,2 km/h (1 Bft) 93,88 %
17.04.2019 20:34 16,7 C 14,4 C 12,8 C 68 % 1019,8 hPa 0,0 l/m 0 min 0 min 0 W/m 6,4 km/h (2 Bft) 97,87 %
17.04.2019 20:36 16,6 C 14,4 C 12,8 C 68 % 1019,8 hPa 0,0 l/m 0 min 0 min 0 W/m 3,2 km/h (1 Bft) 97,87 %
17.04.2019 20:38 16,5 C 13,9 C 12,8 C 68 % 1019,8 hPa 0,0 l/m 0 min 0 min 0 W/m 3,2 km/h (1 Bft) 95,74 %
17.04.2019 20:40 16,4 C 13,9 C 12,8 C 68 % 1019,8 hPa 0,0 l/m 0 min 0 min 0 W/m 3,2 km/h (1 Bft) 97,87 %
17.04.2019 20:42 16,4 C 13,9 C 12,8 C 68 % 1019,8 hPa 0,0 l/m 0 min 0 min 0 W/m 0,0 km/h (0 Bft) 97,83 %
17.04.2019 20:44 16,3 C 13,9 C 12,8 C 69 % 1019,9 hPa 0,0 l/m 0 min 0 min 0 W/m 0,0 km/h (0 Bft) 95,74 %
17.04.2019 20:46 16,3 C 13,9 C 12,8 C 69 % 1019,9 hPa 0,0 l/m 0 min 0 min 0 W/m 0,0 km/h (0 Bft) 97,87 %
17.04.2019 20:48 16,2 C 13,9 C 12,2 C 69 % 1019,9 hPa 0,0 l/m 0 min 0 min 0 W/m 3,2 km/h (1 Bft) 97,87 %
17.04.2019 20:50 16,2 C 13,3 C 12,2 C 69 % 1019,9 hPa 0,0 l/m 0 min 0 min 0 W/m 0,0 km/h (0 Bft) 95,74 %
17.04.2019 20:52 16,1 C 13,3 C 12,2 C 69 % 1020,0 hPa 0,0 l/m 0 min 0 min 0 W/m 0,0 km/h (0 Bft) 97,87 %
17.04.2019 20:54 16,1 C 13,3 C 12,2 C 69 % 1020,0 hPa 0,0 l/m 0 min 0 min 0 W/m 3,2 km/h (1 Bft) 95,65 %
17.04.2019 20:56 16,0 C 12,8 C 12,2 C 70 % 1020,0 hPa 0,0 l/m 0 min 0 min 0 W/m 3,2 km/h (1 Bft) 95,74 %
17.04.2019 20:58 15,9 C 12,8 C 11,7 C 70 % 1020,1 hPa 0,0 l/m 0 min 0 min 0 W/m 3,2 km/h (1 Bft) 95,74 %
17.04.2019 21:00 15,8 C 12,8 C 11,7 C 70 % 1020,0 hPa 0,0 l/m 0 min 0 min 0 W/m 0,0 km/h (0 Bft) 97,92 %
17.04.2019 21:02 15,7 C 12,8 C 11,7 C 70 % 1020,0 hPa 0,0 l/m 0 min 0 min 0 W/m 0,0 km/h (0 Bft) 97,87 %
17.04.2019 21:04 15,7 C 12,8 C 11,7 C 70 % 1020,0 hPa 0,0 l/m 0 min 0 min 0 W/m 3,2 km/h (1 Bft) 95,83 %
17.04.2019 21:06 15,6 C 12,8 C 11,7 C 71 % 1020,1 hPa 0,0 l/m 0 min 0 min 0 W/m 0,0 km/h (0 Bft) 93,48 %
17.04.2019 21:08 15,5 C 12,2 C 11,7 C 71 % 1020,1 hPa 0,0 l/m 0 min 0 min 0 W/m 0,0 km/h (0 Bft) 93,62 %
17.04.2019 21:10 15,4 C 12,2 C 11,1 C 71 % 1020,1 hPa 0,0 l/m 0 min 0 min 0 W/m 0,0 km/h (0 Bft) 95,74 %
17.04.2019 21:12 15,4 C 12,2 C 11,1 C 71 % 1020,1 hPa 0,0 l/m 0 min 0 min 0 W/m 3,2 km/h (1 Bft) 95,74 %
17.04.2019 21:14 15,3 C 12,2 C 11,1 C 71 % 1020,2 hPa 0,0 l/m 0 min 0 min 0 W/m 3,2 km/h (1 Bft) 95,74 %
17.04.2019 21:16 15,2 C 12,2 C 11,1 C 72 % 1020,1 hPa 0,0 l/m 0 min 0 min 0 W/m 3,2 km/h (1 Bft) 95,65 %
17.04.2019 21:18 15,1 C 12,2 C 11,1 C 72 % 1020,2 hPa 0,0 l/m 0 min 0 min 0 W/m 3,2 km/h (1 Bft) 95,74 %
17.04.2019 21:20 15,0 C 12,2 C 11,1 C 72 % 1020,2 hPa 0,0 l/m 0 min 0 min 0 W/m 3,2 km/h (1 Bft) 95,74 %
17.04.2019 21:22 14,9 C 12,2 C 10,6 C 72 % 1020,2 hPa 0,0 l/m 0 min 0 min 0 W/m 3,2 km/h (1 Bft) 95,74 %
17.04.2019 21:24 14,8 C 11,7 C 10,6 C 73 % 1020,2 hPa 0,0 l/m 0 min 0 min 0 W/m 3,2 km/h (1 Bft) 95,74 %
17.04.2019 21:26 14,8 C 11,7 C 10,6 C 73 % 1020,2 hPa 0,0 l/m 0 min 0 min 0 W/m 3,2 km/h (1 Bft) 97,87 %
17.04.2019 21:28 14,7 C 11,7 C 10,6 C 73 % 1020,2 hPa 0,0 l/m 0 min 0 min 0 W/m 3,2 km/h (1 Bft) 97,83 %
17.04.2019 21:30 14,6 C 11,7 C 10,6 C 73 % 1020,3 hPa 0,0 l/m 0 min 0 min 0 W/m 3,2 km/h (1 Bft) 95,74 %
17.04.2019 21:32 14,5 C 11,7 C 10,6 C 73 % 1020,2 hPa 0,0 l/m 0 min 0 min 0 W/m 3,2 km/h (1 Bft) 95,74 %
17.04.2019 21:34 14,4 C 11,7 C 10,6 C 74 % 1020,2 hPa 0,0 l/m 0 min 0 min 0 W/m 3,2 km/h (1 Bft) 97,87 %
17.04.2019 21:36 14,3 C 11,7 C 10,6 C 74 % 1020,1 hPa 0,0 l/m 0 min 0 min 0 W/m 3,2 km/h (1 Bft) 95,74 %
17.04.2019 21:38 14,2 C 11,7 C 10,6 C 74 % 1020,2 hPa 0,0 l/m 0 min 0 min 0 W/m 3,2 km/h (1 Bft) 97,87 %
17.04.2019 21:40 14,2 C 11,7 C 10,6 C 75 % 1020,3 hPa 0,0 l/m 0 min 0 min 0 W/m 6,4 km/h (2 Bft) 100,00 %
17.04.2019 21:42 14,2 C 11,7 C 10,6 C 75 % 1020,3 hPa 0,0 l/m 0 min 0 min 0 W/m 3,2 km/h (1 Bft) 97,87 %
17.04.2019 21:44 14,1 C 11,7 C 10,6 C 75 % 1020,3 hPa 0,0 l/m 0 min 0 min 0 W/m 6,4 km/h (2 Bft) 100,00 %
17.04.2019 21:46 14,0 C 11,7 C 10,6 C 76 % 1020,3 hPa 0,0 l/m 0 min 0 min 0 W/m 6,4 km/h (2 Bft) 100,00 %
17.04.2019 21:48 13,9 C 11,7 C 10,6 C 76 % 1020,3 hPa 0,0 l/m 0 min 0 min 0 W/m 6,4 km/h (2 Bft) 100,00 %
17.04.2019 21:50 13,8 C 11,7 C 10,6 C 76 % 1020,2 hPa 0,0 l/m 0 min 0 min 0 W/m 3,2 km/h (1 Bft) 100,00 %
17.04.2019 21:52 13,8 C 11,7 C 10,6 C 76 % 1020,3 hPa 0,0 l/m 0 min 0 min 0 W/m 3,2 km/h (1 Bft) 100,00 %
17.04.2019 21:54 13,7 C 11,7 C 10,6 C 77 % 1020,3 hPa 0,0 l/m 0 min 0 min 0 W/m 6,4 km/h (2 Bft) 93,62 %
17.04.2019 21:56 13,7 C 11,7 C 10,6 C 77 % 1020,3 hPa 0,0 l/m 0 min 0 min 0 W/m 3,2 km/h (1 Bft) 97,87 %
17.04.2019 21:58 13,6 C 11,7 C 10,6 C 77 % 1020,2 hPa 0,0 l/m 0 min 0 min 0 W/m 3,2 km/h (1 Bft) 97,87 %
17.04.2019 22:00 13,6 C 11,7 C 10,6 C 77 % 1020,2 hPa 0,0 l/m 0 min 0 min 0 W/m 6,4 km/h (2 Bft) 97,87 %
17.04.2019 22:02 13,5 C 11,7 C 10,6 C 77 % 1020,2 hPa 0,0 l/m 0 min 0 min 0 W/m 6,4 km/h (2 Bft) 97,87 %
17.04.2019 22:04 13,4 C 11,7 C 10,6 C 77 % 1020,1 hPa 0,0 l/m 0 min 0 min 0 W/m 6,4 km/h (2 Bft) 97,87 %
17.04.2019 22:06 13,4 C 11,7 C 10,6 C 78 % 1020,2 hPa 0,0 l/m 0 min 0 min 0 W/m 6,4 km/h (2 Bft) 97,87 %
17.04.2019 22:08 13,4 C 11,7 C 10,6 C 78 % 1020,1 hPa 0,0 l/m 0 min 0 min 0 W/m 3,2 km/h (1 Bft) 97,87 %
17.04.2019 22:10 13,3 C 11,7 C 10,6 C 78 % 1020,2 hPa 0,0 l/m 0 min 0 min 0 W/m 3,2 km/h (1 Bft) 97,87 %
17.04.2019 22:12 13,3 C 11,7 C 10,6 C 78 % 1020,2 hPa 0,0 l/m 0 min 0 min 0 W/m 3,2 km/h (1 Bft) 97,87 %
17.04.2019 22:14 13,2 C 11,7 C 10,6 C 78 % 1020,2 hPa 0,0 l/m 0 min 0 min 0 W/m 3,2 km/h (1 Bft) 97,83 %
17.04.2019 22:16 13,2 C 11,7 C 10,6 C 78 % 1020,2 hPa 0,0 l/m 0 min 0 min 0 W/m 3,2 km/h (1 Bft) 97,87 %
17.04.2019 22:18 13,2 C 11,7 C 10,6 C 79 % 1020,2 hPa 0,0 l/m 0 min 0 min 0 W/m 3,2 km/h (1 Bft) 97,87 %
17.04.2019 22:20 13,1 C 11,7 C 10,6 C 79 % 1020,1 hPa 0,0 l/m 0 min 0 min 0 W/m 0,0 km/h (0 Bft) 97,87 %
17.04.2019 22:22 13,1 C 11,7 C 10,0 C 79 % 1020,1 hPa 0,0 l/m 0 min 0 min 0 W/m 3,2 km/h (1 Bft) 97,87 %
17.04.2019 22:24 13,1 C 11,7 C 10,0 C 79 % 1020,0 hPa 0,0 l/m 0 min 0 min 0 W/m 3,2 km/h (1 Bft) 97,87 %
17.04.2019 22:26 13,0 C 11,1 C 10,0 C 79 % 1020,1 hPa 0,0 l/m 0 min 0 min 0 W/m 6,4 km/h (2 Bft) 97,83 %
17.04.2019 22:28 12,9 C 11,1 C 10,0 C 79 % 1020,2 hPa 0,0 l/m 0 min 0 min 0 W/m 3,2 km/h (1 Bft) 97,87 %
17.04.2019 22:30 12,9 C 11,1 C 10,0 C 79 % 1020,1 hPa 0,0 l/m 0 min 0 min 0 W/m 3,2 km/h (1 Bft) 95,74 %
17.04.2019 22:32 12,9 C 11,1 C 10,0 C 79 % 1020,2 hPa 0,0 l/m 0 min 0 min 0 W/m 3,2 km/h (1 Bft) 95,74 %
17.04.2019 22:34 12,9 C 11,1 C 10,0 C 79 % 1020,2 hPa 0,0 l/m 0 min 0 min 0 W/m 0,0 km/h (0 Bft) 97,87 %
17.04.2019 22:36 12,8 C 11,1 C 10,0 C 79 % 1020,3 hPa 0,0 l/m 0 min 0 min 0 W/m 0,0 km/h (0 Bft) 95,74 %
17.04.2019 22:38 12,8 C 11,1 C 10,0 C 79 % 1020,2 hPa 0,0 l/m 0 min 0 min 0 W/m 0,0 km/h (0 Bft) 97,83 %
17.04.2019 22:40 12,8 C 10,6 C 10,0 C 79 % 1020,2 hPa 0,0 l/m 0 min 0 min 0 W/m 0,0 km/h (0 Bft) 97,87 %
17.04.2019 22:42 12,8 C 10,6 C 9,4 C 79 % 1020,2 hPa 0,0 l/m 0 min 0 min 0 W/m 0,0 km/h (0 Bft) 97,87 %
17.04.2019 22:44 12,7 C 10,6 C 9,4 C 79 % 1020,2 hPa 0,0 l/m 0 min 0 min 0 W/m 0,0 km/h (0 Bft) 97,87 %
17.04.2019 22:46 12,7 C 10,6 C 9,4 C 79 % 1020,3 hPa 0,0 l/m 0 min 0 min 0 W/m 3,2 km/h (1 Bft) 97,87 %
17.04.2019 22:48 12,7 C 10,6 C 9,4 C 79 % 1020,3 hPa 0,0 l/m 0 min 0 min 0 W/m 3,2 km/h (1 Bft) 97,83 %
17.04.2019 22:50 12,6 C 10,6 C 9,4 C 80 % 1020,3 hPa 0,0 l/m 0 min 0 min 0 W/m 3,2 km/h (1 Bft) 95,74 %
17.04.2019 22:52 12,6 C 10,6 C 9,4 C 80 % 1020,3 hPa 0,0 l/m 0 min 0 min 0 W/m 0,0 km/h (0 Bft) 97,87 %
17.04.2019 22:54 12,5 C 10,6 C 9,4 C 80 % 1020,4 hPa 0,0 l/m 0 min 0 min 0 W/m 0,0 km/h (0 Bft) 95,83 %
17.04.2019 22:56 12,4 C 10,6 C 9,4 C 80 % 1020,3 hPa 0,0 l/m 0 min 0 min 0 W/m 3,2 km/h (1 Bft) 95,08 %
17.04.2019 22:58 12,4 C 10,6 C 9,4 C 80 % 1020,4 hPa 0,0 l/m 0 min 0 min 0 W/m 0,0 km/h (0 Bft) 95,74 %
17.04.2019 23:00 12,4 C 10,6 C 9,4 C 80 % 1020,4 hPa 0,0 l/m 0 min 0 min 0 W/m 0,0 km/h (0 Bft) 97,87 %
17.04.2019 23:02 12,3 C 10,6 C 9,4 C 80 % 1020,4 hPa 0,0 l/m 0 min 0 min 0 W/m 0,0 km/h (0 Bft) 95,74 %
17.04.2019 23:04 12,3 C 10,6 C 9,4 C 80 % 1020,5 hPa 0,0 l/m 0 min 0 min 0 W/m 0,0 km/h (0 Bft) 95,65 %
17.04.2019 23:06 12,3 C 10,6 C 9,4 C 80 % 1020,5 hPa 0,0 l/m 0 min 0 min 0 W/m 0,0 km/h (0 Bft) 98,31 %
17.04.2019 23:08 12,2 C 10,6 C 9,4 C 80 % 1020,6 hPa 0,0 l/m 0 min 0 min 0 W/m 0,0 km/h (0 Bft) 97,14 %
17.04.2019 23:10 12,2 C 10,0 C 8,9 C 80 % 1020,6 hPa 0,0 l/m 0 min 0 min 0 W/m 0,0 km/h (0 Bft) 95,74 %
17.04.2019 23:12 12,2 C 10,0 C 8,9 C 80 % 1020,6 hPa 0,0 l/m 0 min 0 min 0 W/m 0,0 km/h (0 Bft) 97,87 %
17.04.2019 23:14 12,1 C 10,0 C 8,9 C 80 % 1020,5 hPa 0,0 l/m 0 min 0 min 0 W/m 0,0 km/h (0 Bft) 97,83 %
17.04.2019 23:16 12,1 C 10,0 C 8,9 C 80 % 1020,5 hPa 0,0 l/m 0 min 0 min 0 W/m 0,0 km/h (0 Bft) 97,87 %
17.04.2019 23:18 12,1 C 10,0 C 8,9 C 80 % 1020,5 hPa 0,0 l/m 0 min 0 min 0 W/m 0,0 km/h (0 Bft) 97,87 %
17.04.2019 23:20 12,0 C 10,0 C 8,9 C 81 % 1020,6 hPa 0,0 l/m 0 min 0 min 0 W/m 0,0 km/h (0 Bft) 93,62 %
17.04.2019 23:22 11,9 C 9,4 C 8,9 C 81 % 1020,7 hPa 0,0 l/m 0 min 0 min 0 W/m 0,0 km/h (0 Bft) 97,87 %
17.04.2019 23:24 11,9 C 9,4 C 8,9 C 81 % 1020,7 hPa 0,0 l/m 0 min 0 min 0 W/m 3,2 km/h (1 Bft) 97,87 %
17.04.2019 23:26 11,8 C 9,4 C 8,9 C 81 % 1020,6 hPa 0,0 l/m 0 min 0 min 0 W/m 3,2 km/h (1 Bft) 97,83 %
17.04.2019 23:28 11,8 C 9,4 C 8,9 C 80 % 1020,7 hPa 0,0 l/m 0 min 0 min 0 W/m 0,0 km/h (0 Bft) 93,62 %
17.04.2019 23:30 11,8 C 9,4 C 8,3 C 80 % 1020,6 hPa 0,0 l/m 0 min 0 min 0 W/m 0,0 km/h (0 Bft) 93,62 %
17.04.2019 23:32 11,7 C 9,4 C 8,3 C 80 % 1020,6 hPa 0,0 l/m 0 min 0 min 0 W/m 0,0 km/h (0 Bft) 97,87 %
17.04.2019 23:34 11,7 C 9,4 C 8,3 C 80 % 1020,7 hPa 0,0 l/m 0 min 0 min 0 W/m 0,0 km/h (0 Bft) 97,87 %
17.04.2019 23:36 11,6 C 9,4 C 8,3 C 80 % 1020,7 hPa 0,0 l/m 0 min 0 min 0 W/m 0,0 km/h (0 Bft) 100,00 %
17.04.2019 23:38 11,6 C 9,4 C 8,9 C 81 % 1020,7 hPa 0,0 l/m 0 min 0 min 0 W/m 0,0 km/h (0 Bft) 100,00 %
17.04.2019 23:40 11,6 C 9,4 C 8,9 C 81 % 1020,7 hPa 0,0 l/m 0 min 0 min 0 W/m 3,2 km/h (1 Bft) 97,87 %
17.04.2019 23:42 11,5 C 9,4 C 8,9 C 81 % 1020,6 hPa 0,0 l/m 0 min 0 min 0 W/m 0,0 km/h (0 Bft) 97,87 %
17.04.2019 23:44 11,4 C 10,0 C 8,9 C 81 % 1020,6 hPa 0,0 l/m 0 min 0 min 0 W/m 0,0 km/h (0 Bft) 97,87 %
17.04.2019 23:46 11,4 C 10,0 C 8,9 C 81 % 1020,6 hPa 0,0 l/m 0 min 0 min 0 W/m 3,2 km/h (1 Bft) 95,74 %
17.04.2019 23:48 11,4 C 10,0 C 8,9 C 81 % 1020,7 hPa 0,0 l/m 0 min 0 min 0 W/m 3,2 km/h (1 Bft) 97,87 %
17.04.2019 23:50 11,3 C 10,0 C 8,9 C 81 % 1020,8 hPa 0,0 l/m 0 min 0 min 0 W/m 0,0 km/h (0 Bft) 97,83 %
17.04.2019 23:52 11,3 C 10,0 C 8,9 C 81 % 1020,8 hPa 0,0 l/m 0 min 0 min 0 W/m 0,0 km/h (0 Bft) 97,87 %
17.04.2019 23:54 11,3 C 10,0 C 8,9 C 82 % 1020,8 hPa 0,0 l/m 0 min 0 min 0 W/m 6,4 km/h (2 Bft) 97,87 %
17.04.2019 23:56 11,3 C 10,6 C 8,9 C 82 % 1020,8 hPa 0,0 l/m 0 min 0 min 0 W/m 3,2 km/h (1 Bft) 97,87 %
17.04.2019 23:58 11,2 C 10,6 C 8,9 C 82 % 1020,8 hPa 0,0 l/m 0 min 0 min 0 W/m 3,2 km/h (1 Bft) 97,87 %
_ Min-Zeit 06:34 23:22 23:30 18:14 00:00 - - - - 06:04 14:52
Minimum _ 11,1 C 9,4 C 8,3 C 58 % 1016,8 hPa - - - - 0,0 km/h (0 Bft) 73,91 %
_ Max-Zeit 17:56 16:40 16:42 08:40 23:50 00:00 18:08 06:26 16:30 11:00 00:12
Maximum _ 19,6 C 24,4 C 22,2 C 89 % 1020,8 hPa 0,0 l/m 4 min 2 min 715 W/m 35,4 km/h
O-SO (5 Bft)
100,00 %
Durchschnitt _ 13,9 C 13,5 C 12,8 C 77 % 1018,8 hPa #0,0 l/m #3:12 h #1:52 h 210 W/m 10,5 km/h (2 Bft) 97,11 %
© 2019 W. Hausmann